<?xml version="1.0" encoding="UTF-8" standalone="no" ?>
<gpx xmlns="http://www.topografix.com/GPX/1/1" xmlns:xsi="http://www.w3.org/2001/XMLSchema-instance" xsi:schemaLocation="http://www.topografix.com/GPX/1/1 http://www.topografix.com/GPX/1/1/gpx.xsd" version="1.1" creator="VisuGPX - https://www.visugpx.com">
  <metadata>
    <name>Vtt Blagnac- Tour de Garonne </name>
  </metadata>
  <trk>
    <name><![CDATA[14426247-Vtt Blagnac- Tour de Garonne ]]></name>
    <extensions>
      <line xmlns="http://www.topografix.com/GPX/gpx_style/0/2">
        <color>0000FF</color>
        <width>4</width>
      </line>
    </extensions>
    <trkseg>
      <trkpt lat="43.65526" lon="1.44592">
        <ele>135</ele>
        <time>2022-03-18T19:24:28Z</time>
      </trkpt>
      <trkpt lat="43.65454" lon="1.44556">
        <ele>135</ele>
        <time>2022-03-18T19:24:46Z</time>
      </trkpt>
      <trkpt lat="43.65438" lon="1.4455">
        <ele>135</ele>
        <time>2022-03-18T19:24:50Z</time>
      </trkpt>
      <trkpt lat="43.65288" lon="1.44524">
        <ele>136</ele>
        <time>2022-03-18T19:25:25Z</time>
      </trkpt>
      <trkpt lat="43.65251" lon="1.44515">
        <ele>136</ele>
        <time>2022-03-18T19:25:34Z</time>
      </trkpt>
      <trkpt lat="43.65193" lon="1.44497">
        <ele>136</ele>
        <time>2022-03-18T19:25:48Z</time>
      </trkpt>
      <trkpt lat="43.65122" lon="1.44471">
        <ele>135</ele>
        <time>2022-03-18T19:26:05Z</time>
      </trkpt>
      <trkpt lat="43.65018" lon="1.44431">
        <ele>135</ele>
        <time>2022-03-18T19:26:30Z</time>
      </trkpt>
      <trkpt lat="43.64949" lon="1.44392">
        <ele>136</ele>
        <time>2022-03-18T19:26:47Z</time>
      </trkpt>
      <trkpt lat="43.64894" lon="1.44363">
        <ele>136</ele>
        <time>2022-03-18T19:27:01Z</time>
      </trkpt>
      <trkpt lat="43.64794" lon="1.44329">
        <ele>136</ele>
        <time>2022-03-18T19:27:25Z</time>
      </trkpt>
      <trkpt lat="43.64783" lon="1.44318">
        <ele>136</ele>
        <time>2022-03-18T19:27:28Z</time>
      </trkpt>
      <trkpt lat="43.6472" lon="1.44353">
        <ele>135</ele>
        <time>2022-03-18T19:27:44Z</time>
      </trkpt>
      <trkpt lat="43.6466" lon="1.44372">
        <ele>134</ele>
        <time>2022-03-18T19:27:59Z</time>
      </trkpt>
      <trkpt lat="43.6461" lon="1.44383">
        <ele>135</ele>
        <time>2022-03-18T19:28:11Z</time>
      </trkpt>
      <trkpt lat="43.64628" lon="1.44231">
        <ele>134</ele>
        <time>2022-03-18T19:28:37Z</time>
      </trkpt>
      <trkpt lat="43.64635" lon="1.4422">
        <ele>134</ele>
        <time>2022-03-18T19:28:39Z</time>
      </trkpt>
      <trkpt lat="43.64644" lon="1.44211">
        <ele>134</ele>
        <time>2022-03-18T19:28:42Z</time>
      </trkpt>
      <trkpt lat="43.64647" lon="1.44206">
        <ele>134</ele>
        <time>2022-03-18T19:28:43Z</time>
      </trkpt>
      <trkpt lat="43.64649" lon="1.44198">
        <ele>134</ele>
        <time>2022-03-18T19:28:44Z</time>
      </trkpt>
      <trkpt lat="43.64679" lon="1.43964">
        <ele>136</ele>
        <time>2022-03-18T19:29:24Z</time>
      </trkpt>
      <trkpt lat="43.64681" lon="1.43957">
        <ele>136</ele>
        <time>2022-03-18T19:29:26Z</time>
      </trkpt>
      <trkpt lat="43.6469" lon="1.43938">
        <ele>136</ele>
        <time>2022-03-18T19:29:29Z</time>
      </trkpt>
      <trkpt lat="43.64695" lon="1.43932">
        <ele>135</ele>
        <time>2022-03-18T19:29:31Z</time>
      </trkpt>
      <trkpt lat="43.64702" lon="1.43928">
        <ele>135</ele>
        <time>2022-03-18T19:29:33Z</time>
      </trkpt>
      <trkpt lat="43.647" lon="1.43898">
        <ele>135</ele>
        <time>2022-03-18T19:29:38Z</time>
      </trkpt>
      <trkpt lat="43.64708" lon="1.43886">
        <ele>135</ele>
        <time>2022-03-18T19:29:41Z</time>
      </trkpt>
      <trkpt lat="43.64721" lon="1.43839">
        <ele>135</ele>
        <time>2022-03-18T19:29:49Z</time>
      </trkpt>
      <trkpt lat="43.64726" lon="1.43828">
        <ele>135</ele>
        <time>2022-03-18T19:29:51Z</time>
      </trkpt>
      <trkpt lat="43.64723" lon="1.4382">
        <ele>135</ele>
        <time>2022-03-18T19:29:53Z</time>
      </trkpt>
      <trkpt lat="43.64716" lon="1.43804">
        <ele>136</ele>
        <time>2022-03-18T19:29:56Z</time>
      </trkpt>
      <trkpt lat="43.64713" lon="1.43793">
        <ele>136</ele>
        <time>2022-03-18T19:29:58Z</time>
      </trkpt>
      <trkpt lat="43.64696" lon="1.4356">
        <ele>136</ele>
        <time>2022-03-18T19:30:38Z</time>
      </trkpt>
      <trkpt lat="43.64683" lon="1.43313">
        <ele>137</ele>
        <time>2022-03-18T19:31:19Z</time>
      </trkpt>
      <trkpt lat="43.64655" lon="1.42947">
        <ele>135</ele>
        <time>2022-03-18T19:32:22Z</time>
      </trkpt>
      <trkpt lat="43.64621" lon="1.4295">
        <ele>135</ele>
        <time>2022-03-18T19:32:30Z</time>
      </trkpt>
      <trkpt lat="43.64619" lon="1.42914">
        <ele>136</ele>
        <time>2022-03-18T19:32:36Z</time>
      </trkpt>
      <trkpt lat="43.64618" lon="1.42913">
        <ele>136</ele>
        <time>2022-03-18T19:32:36Z</time>
      </trkpt>
      <trkpt lat="43.64601" lon="1.42713">
        <ele>135</ele>
        <time>2022-03-18T19:33:10Z</time>
      </trkpt>
      <trkpt lat="43.64647" lon="1.42698">
        <ele>135</ele>
        <time>2022-03-18T19:33:21Z</time>
      </trkpt>
      <trkpt lat="43.64654" lon="1.426">
        <ele>133</ele>
        <time>2022-03-18T19:33:38Z</time>
      </trkpt>
      <trkpt lat="43.64657" lon="1.42598">
        <ele>133</ele>
        <time>2022-03-18T19:33:38Z</time>
      </trkpt>
      <trkpt lat="43.64659" lon="1.42542">
        <ele>133</ele>
        <time>2022-03-18T19:33:48Z</time>
      </trkpt>
      <trkpt lat="43.64657" lon="1.42536">
        <ele>133</ele>
        <time>2022-03-18T19:33:49Z</time>
      </trkpt>
      <trkpt lat="43.64664" lon="1.42461">
        <ele>134</ele>
        <time>2022-03-18T19:34:02Z</time>
      </trkpt>
      <trkpt lat="43.64663" lon="1.42444">
        <ele>134</ele>
        <time>2022-03-18T19:34:05Z</time>
      </trkpt>
      <trkpt lat="43.64664" lon="1.4242">
        <ele>134</ele>
        <time>2022-03-18T19:34:09Z</time>
      </trkpt>
      <trkpt lat="43.64672" lon="1.42325">
        <ele>133</ele>
        <time>2022-03-18T19:34:25Z</time>
      </trkpt>
      <trkpt lat="43.64675" lon="1.42286">
        <ele>132</ele>
        <time>2022-03-18T19:34:31Z</time>
      </trkpt>
      <trkpt lat="43.64717" lon="1.42295">
        <ele>133</ele>
        <time>2022-03-18T19:34:41Z</time>
      </trkpt>
      <trkpt lat="43.64725" lon="1.42296">
        <ele>133</ele>
        <time>2022-03-18T19:34:43Z</time>
      </trkpt>
      <trkpt lat="43.64974" lon="1.42333">
        <ele>133</ele>
        <time>2022-03-18T19:35:42Z</time>
      </trkpt>
      <trkpt lat="43.65058" lon="1.42346">
        <ele>132</ele>
        <time>2022-03-18T19:36:02Z</time>
      </trkpt>
      <trkpt lat="43.65143" lon="1.42344">
        <ele>135</ele>
        <time>2022-03-18T19:36:21Z</time>
      </trkpt>
      <trkpt lat="43.6519" lon="1.42329">
        <ele>136</ele>
        <time>2022-03-18T19:36:33Z</time>
      </trkpt>
      <trkpt lat="43.65224" lon="1.42315">
        <ele>135</ele>
        <time>2022-03-18T19:36:41Z</time>
      </trkpt>
      <trkpt lat="43.65276" lon="1.4228">
        <ele>133</ele>
        <time>2022-03-18T19:36:54Z</time>
      </trkpt>
      <trkpt lat="43.65639" lon="1.41971">
        <ele>130</ele>
        <time>2022-03-18T19:38:34Z</time>
      </trkpt>
      <trkpt lat="43.65636" lon="1.41961">
        <ele>129</ele>
        <time>2022-03-18T19:38:36Z</time>
      </trkpt>
      <trkpt lat="43.65634" lon="1.41955">
        <ele>129</ele>
        <time>2022-03-18T19:38:37Z</time>
      </trkpt>
      <trkpt lat="43.65446" lon="1.41934">
        <ele>129</ele>
        <time>2022-03-18T19:39:21Z</time>
      </trkpt>
      <trkpt lat="43.6543" lon="1.41931">
        <ele>128</ele>
        <time>2022-03-18T19:39:25Z</time>
      </trkpt>
      <trkpt lat="43.654" lon="1.41908">
        <ele>128</ele>
        <time>2022-03-18T19:39:33Z</time>
      </trkpt>
      <trkpt lat="43.65387" lon="1.41902">
        <ele>128</ele>
        <time>2022-03-18T19:39:36Z</time>
      </trkpt>
      <trkpt lat="43.65377" lon="1.41903">
        <ele>129</ele>
        <time>2022-03-18T19:39:38Z</time>
      </trkpt>
      <trkpt lat="43.65368" lon="1.41908">
        <ele>129</ele>
        <time>2022-03-18T19:39:41Z</time>
      </trkpt>
      <trkpt lat="43.65351" lon="1.41928">
        <ele>129</ele>
        <time>2022-03-18T19:39:46Z</time>
      </trkpt>
      <trkpt lat="43.65322" lon="1.41994">
        <ele>129</ele>
        <time>2022-03-18T19:39:59Z</time>
      </trkpt>
      <trkpt lat="43.65317" lon="1.41996">
        <ele>129</ele>
        <time>2022-03-18T19:40:00Z</time>
      </trkpt>
      <trkpt lat="43.65282" lon="1.41998">
        <ele>131</ele>
        <time>2022-03-18T19:40:08Z</time>
      </trkpt>
      <trkpt lat="43.65222" lon="1.41996">
        <ele>132</ele>
        <time>2022-03-18T19:40:22Z</time>
      </trkpt>
      <trkpt lat="43.65207" lon="1.4199">
        <ele>131</ele>
        <time>2022-03-18T19:40:26Z</time>
      </trkpt>
      <trkpt lat="43.65161" lon="1.41994">
        <ele>130</ele>
        <time>2022-03-18T19:40:37Z</time>
      </trkpt>
      <trkpt lat="43.65138" lon="1.41991">
        <ele>129</ele>
        <time>2022-03-18T19:40:42Z</time>
      </trkpt>
      <trkpt lat="43.65115" lon="1.41995">
        <ele>129</ele>
        <time>2022-03-18T19:40:47Z</time>
      </trkpt>
      <trkpt lat="43.65083" lon="1.42003">
        <ele>128</ele>
        <time>2022-03-18T19:40:55Z</time>
      </trkpt>
      <trkpt lat="43.65053" lon="1.42014">
        <ele>129</ele>
        <time>2022-03-18T19:41:02Z</time>
      </trkpt>
      <trkpt lat="43.64992" lon="1.42041">
        <ele>131</ele>
        <time>2022-03-18T19:41:17Z</time>
      </trkpt>
      <trkpt lat="43.64922" lon="1.42022">
        <ele>131</ele>
        <time>2022-03-18T19:41:34Z</time>
      </trkpt>
      <trkpt lat="43.64883" lon="1.42027">
        <ele>133</ele>
        <time>2022-03-18T19:41:43Z</time>
      </trkpt>
      <trkpt lat="43.64865" lon="1.42023">
        <ele>134</ele>
        <time>2022-03-18T19:41:47Z</time>
      </trkpt>
      <trkpt lat="43.64856" lon="1.42014">
        <ele>134</ele>
        <time>2022-03-18T19:41:50Z</time>
      </trkpt>
      <trkpt lat="43.64846" lon="1.41996">
        <ele>135</ele>
        <time>2022-03-18T19:41:54Z</time>
      </trkpt>
      <trkpt lat="43.64836" lon="1.41972">
        <ele>135</ele>
        <time>2022-03-18T19:41:58Z</time>
      </trkpt>
      <trkpt lat="43.64829" lon="1.41926">
        <ele>132</ele>
        <time>2022-03-18T19:42:06Z</time>
      </trkpt>
      <trkpt lat="43.64821" lon="1.41893">
        <ele>131</ele>
        <time>2022-03-18T19:42:12Z</time>
      </trkpt>
      <trkpt lat="43.6482" lon="1.41882">
        <ele>131</ele>
        <time>2022-03-18T19:42:14Z</time>
      </trkpt>
      <trkpt lat="43.64829" lon="1.41831">
        <ele>129</ele>
        <time>2022-03-18T19:42:23Z</time>
      </trkpt>
      <trkpt lat="43.64836" lon="1.41807">
        <ele>129</ele>
        <time>2022-03-18T19:42:27Z</time>
      </trkpt>
      <trkpt lat="43.64848" lon="1.41793">
        <ele>129</ele>
        <time>2022-03-18T19:42:31Z</time>
      </trkpt>
      <trkpt lat="43.64869" lon="1.41777">
        <ele>130</ele>
        <time>2022-03-18T19:42:37Z</time>
      </trkpt>
      <trkpt lat="43.64908" lon="1.41759">
        <ele>133</ele>
        <time>2022-03-18T19:42:46Z</time>
      </trkpt>
      <trkpt lat="43.64921" lon="1.41767">
        <ele>133</ele>
        <time>2022-03-18T19:42:50Z</time>
      </trkpt>
      <trkpt lat="43.64942" lon="1.41772">
        <ele>133</ele>
        <time>2022-03-18T19:42:55Z</time>
      </trkpt>
      <trkpt lat="43.64952" lon="1.41783">
        <ele>132</ele>
        <time>2022-03-18T19:42:58Z</time>
      </trkpt>
      <trkpt lat="43.64966" lon="1.41787">
        <ele>132</ele>
        <time>2022-03-18T19:43:01Z</time>
      </trkpt>
      <trkpt lat="43.64981" lon="1.41784">
        <ele>133</ele>
        <time>2022-03-18T19:43:04Z</time>
      </trkpt>
      <trkpt lat="43.6501" lon="1.41772">
        <ele>134</ele>
        <time>2022-03-18T19:43:11Z</time>
      </trkpt>
      <trkpt lat="43.65041" lon="1.41766">
        <ele>134</ele>
        <time>2022-03-18T19:43:19Z</time>
      </trkpt>
      <trkpt lat="43.65046" lon="1.41767">
        <ele>134</ele>
        <time>2022-03-18T19:43:20Z</time>
      </trkpt>
      <trkpt lat="43.65058" lon="1.41778">
        <ele>133</ele>
        <time>2022-03-18T19:43:23Z</time>
      </trkpt>
      <trkpt lat="43.65074" lon="1.41806">
        <ele>132</ele>
        <time>2022-03-18T19:43:29Z</time>
      </trkpt>
      <trkpt lat="43.65085" lon="1.41814">
        <ele>131</ele>
        <time>2022-03-18T19:43:32Z</time>
      </trkpt>
      <trkpt lat="43.65096" lon="1.41814">
        <ele>131</ele>
        <time>2022-03-18T19:43:35Z</time>
      </trkpt>
      <trkpt lat="43.65106" lon="1.41807">
        <ele>132</ele>
        <time>2022-03-18T19:43:37Z</time>
      </trkpt>
      <trkpt lat="43.65136" lon="1.41753">
        <ele>135</ele>
        <time>2022-03-18T19:43:49Z</time>
      </trkpt>
      <trkpt lat="43.65177" lon="1.41719">
        <ele>133</ele>
        <time>2022-03-18T19:44:00Z</time>
      </trkpt>
      <trkpt lat="43.65262" lon="1.41636">
        <ele>130</ele>
        <time>2022-03-18T19:44:24Z</time>
      </trkpt>
      <trkpt lat="43.65273" lon="1.41623">
        <ele>130</ele>
        <time>2022-03-18T19:44:28Z</time>
      </trkpt>
      <trkpt lat="43.65277" lon="1.41621">
        <ele>130</ele>
        <time>2022-03-18T19:44:29Z</time>
      </trkpt>
      <trkpt lat="43.65291" lon="1.41608">
        <ele>130</ele>
        <time>2022-03-18T19:44:33Z</time>
      </trkpt>
      <trkpt lat="43.65348" lon="1.41551">
        <ele>129</ele>
        <time>2022-03-18T19:44:49Z</time>
      </trkpt>
      <trkpt lat="43.65356" lon="1.41549">
        <ele>129</ele>
        <time>2022-03-18T19:44:51Z</time>
      </trkpt>
      <trkpt lat="43.65358" lon="1.4155">
        <ele>129</ele>
        <time>2022-03-18T19:44:52Z</time>
      </trkpt>
      <trkpt lat="43.65367" lon="1.41564">
        <ele>128</ele>
        <time>2022-03-18T19:44:55Z</time>
      </trkpt>
      <trkpt lat="43.65368" lon="1.41571">
        <ele>128</ele>
        <time>2022-03-18T19:44:56Z</time>
      </trkpt>
      <trkpt lat="43.65416" lon="1.41414">
        <ele>132</ele>
        <time>2022-03-18T19:45:25Z</time>
      </trkpt>
      <trkpt lat="43.65338" lon="1.41191">
        <ele>129</ele>
        <time>2022-03-18T19:46:07Z</time>
      </trkpt>
      <trkpt lat="43.65334" lon="1.41017">
        <ele>129</ele>
        <time>2022-03-18T19:46:36Z</time>
      </trkpt>
      <trkpt lat="43.65302" lon="1.40853">
        <ele>128</ele>
        <time>2022-03-18T19:47:05Z</time>
      </trkpt>
      <trkpt lat="43.65448" lon="1.40802">
        <ele>126</ele>
        <time>2022-03-18T19:47:40Z</time>
      </trkpt>
      <trkpt lat="43.65491" lon="1.40757">
        <ele>124</ele>
        <time>2022-03-18T19:47:52Z</time>
      </trkpt>
      <trkpt lat="43.65321" lon="1.40644">
        <ele>122</ele>
        <time>2022-03-18T19:48:37Z</time>
      </trkpt>
      <trkpt lat="43.65278" lon="1.40612">
        <ele>124</ele>
        <time>2022-03-18T19:48:48Z</time>
      </trkpt>
      <trkpt lat="43.65198" lon="1.40541">
        <ele>124</ele>
        <time>2022-03-18T19:49:10Z</time>
      </trkpt>
      <trkpt lat="43.65179" lon="1.40521">
        <ele>123</ele>
        <time>2022-03-18T19:49:16Z</time>
      </trkpt>
      <trkpt lat="43.65148" lon="1.40496">
        <ele>124</ele>
        <time>2022-03-18T19:49:24Z</time>
      </trkpt>
      <trkpt lat="43.64959" lon="1.40299">
        <ele>126</ele>
        <time>2022-03-18T19:50:19Z</time>
      </trkpt>
      <trkpt lat="43.64888" lon="1.4024">
        <ele>126</ele>
        <time>2022-03-18T19:50:39Z</time>
      </trkpt>
      <trkpt lat="43.64857" lon="1.40227">
        <ele>126</ele>
        <time>2022-03-18T19:50:46Z</time>
      </trkpt>
      <trkpt lat="43.64833" lon="1.40224">
        <ele>127</ele>
        <time>2022-03-18T19:50:52Z</time>
      </trkpt>
      <trkpt lat="43.64775" lon="1.40229">
        <ele>126</ele>
        <time>2022-03-18T19:51:05Z</time>
      </trkpt>
      <trkpt lat="43.64713" lon="1.40229">
        <ele>125</ele>
        <time>2022-03-18T19:51:20Z</time>
      </trkpt>
      <trkpt lat="43.64651" lon="1.40257">
        <ele>127</ele>
        <time>2022-03-18T19:51:35Z</time>
      </trkpt>
      <trkpt lat="43.64634" lon="1.40256">
        <ele>127</ele>
        <time>2022-03-18T19:51:39Z</time>
      </trkpt>
      <trkpt lat="43.64582" lon="1.40278">
        <ele>127</ele>
        <time>2022-03-18T19:51:52Z</time>
      </trkpt>
      <trkpt lat="43.64458" lon="1.40317">
        <ele>126</ele>
        <time>2022-03-18T19:52:22Z</time>
      </trkpt>
      <trkpt lat="43.64386" lon="1.40333">
        <ele>126</ele>
        <time>2022-03-18T19:52:39Z</time>
      </trkpt>
      <trkpt lat="43.64364" lon="1.40333">
        <ele>125</ele>
        <time>2022-03-18T19:52:44Z</time>
      </trkpt>
      <trkpt lat="43.6428" lon="1.40362">
        <ele>126</ele>
        <time>2022-03-18T19:53:04Z</time>
      </trkpt>
      <trkpt lat="43.64018" lon="1.40429">
        <ele>127</ele>
        <time>2022-03-18T19:54:06Z</time>
      </trkpt>
      <trkpt lat="43.63915" lon="1.4045">
        <ele>130</ele>
        <time>2022-03-18T19:54:30Z</time>
      </trkpt>
      <trkpt lat="43.63875" lon="1.4046">
        <ele>128</ele>
        <time>2022-03-18T19:54:40Z</time>
      </trkpt>
      <trkpt lat="43.63822" lon="1.40468">
        <ele>127</ele>
        <time>2022-03-18T19:54:52Z</time>
      </trkpt>
      <trkpt lat="43.63793" lon="1.4047">
        <ele>127</ele>
        <time>2022-03-18T19:54:59Z</time>
      </trkpt>
      <trkpt lat="43.63747" lon="1.4048">
        <ele>127</ele>
        <time>2022-03-18T19:55:10Z</time>
      </trkpt>
      <trkpt lat="43.63717" lon="1.40484">
        <ele>128</ele>
        <time>2022-03-18T19:55:17Z</time>
      </trkpt>
      <trkpt lat="43.63616" lon="1.40488">
        <ele>127</ele>
        <time>2022-03-18T19:55:41Z</time>
      </trkpt>
      <trkpt lat="43.63524" lon="1.40483">
        <ele>126</ele>
        <time>2022-03-18T19:56:02Z</time>
      </trkpt>
      <trkpt lat="43.63442" lon="1.4049">
        <ele>126</ele>
        <time>2022-03-18T19:56:21Z</time>
      </trkpt>
      <trkpt lat="43.63411" lon="1.40496">
        <ele>127</ele>
        <time>2022-03-18T19:56:29Z</time>
      </trkpt>
      <trkpt lat="43.63386" lon="1.40497">
        <ele>127</ele>
        <time>2022-03-18T19:56:35Z</time>
      </trkpt>
      <trkpt lat="43.63379" lon="1.40494">
        <ele>127</ele>
        <time>2022-03-18T19:56:36Z</time>
      </trkpt>
      <trkpt lat="43.63367" lon="1.40483">
        <ele>126</ele>
        <time>2022-03-18T19:56:40Z</time>
      </trkpt>
      <trkpt lat="43.63303" lon="1.40467">
        <ele>126</ele>
        <time>2022-03-18T19:56:55Z</time>
      </trkpt>
      <trkpt lat="43.6328" lon="1.4045">
        <ele>126</ele>
        <time>2022-03-18T19:57:01Z</time>
      </trkpt>
      <trkpt lat="43.6327" lon="1.40446">
        <ele>126</ele>
        <time>2022-03-18T19:57:03Z</time>
      </trkpt>
      <trkpt lat="43.63259" lon="1.40446">
        <ele>127</ele>
        <time>2022-03-18T19:57:06Z</time>
      </trkpt>
      <trkpt lat="43.6324" lon="1.40441">
        <ele>127</ele>
        <time>2022-03-18T19:57:10Z</time>
      </trkpt>
      <trkpt lat="43.63133" lon="1.40395">
        <ele>128</ele>
        <time>2022-03-18T19:57:37Z</time>
      </trkpt>
      <trkpt lat="43.63059" lon="1.40361">
        <ele>128</ele>
        <time>2022-03-18T19:57:55Z</time>
      </trkpt>
      <trkpt lat="43.62964" lon="1.4032">
        <ele>128</ele>
        <time>2022-03-18T19:58:18Z</time>
      </trkpt>
      <trkpt lat="43.62893" lon="1.40296">
        <ele>126</ele>
        <time>2022-03-18T19:58:35Z</time>
      </trkpt>
      <trkpt lat="43.62863" lon="1.4028">
        <ele>125</ele>
        <time>2022-03-18T19:58:43Z</time>
      </trkpt>
      <trkpt lat="43.62717" lon="1.40243">
        <ele>128</ele>
        <time>2022-03-18T19:59:17Z</time>
      </trkpt>
      <trkpt lat="43.62625" lon="1.40228">
        <ele>127</ele>
        <time>2022-03-18T19:59:39Z</time>
      </trkpt>
      <trkpt lat="43.62533" lon="1.40215">
        <ele>128</ele>
        <time>2022-03-18T20:00:01Z</time>
      </trkpt>
      <trkpt lat="43.62537" lon="1.4022">
        <ele>129</ele>
        <time>2022-03-18T20:00:02Z</time>
      </trkpt>
      <trkpt lat="43.62536" lon="1.40226">
        <ele>129</ele>
        <time>2022-03-18T20:00:03Z</time>
      </trkpt>
      <trkpt lat="43.6253" lon="1.40234">
        <ele>131</ele>
        <time>2022-03-18T20:00:05Z</time>
      </trkpt>
      <trkpt lat="43.62523" lon="1.40237">
        <ele>131</ele>
        <time>2022-03-18T20:00:06Z</time>
      </trkpt>
      <trkpt lat="43.62491" lon="1.40237">
        <ele>131</ele>
        <time>2022-03-18T20:00:14Z</time>
      </trkpt>
      <trkpt lat="43.6249" lon="1.40243">
        <ele>132</ele>
        <time>2022-03-18T20:00:15Z</time>
      </trkpt>
      <trkpt lat="43.6248" lon="1.40243">
        <ele>131</ele>
        <time>2022-03-18T20:00:17Z</time>
      </trkpt>
      <trkpt lat="43.62473" lon="1.40249">
        <ele>132</ele>
        <time>2022-03-18T20:00:19Z</time>
      </trkpt>
      <trkpt lat="43.62465" lon="1.40276">
        <ele>132</ele>
        <time>2022-03-18T20:00:24Z</time>
      </trkpt>
      <trkpt lat="43.6246" lon="1.40276">
        <ele>132</ele>
        <time>2022-03-18T20:00:25Z</time>
      </trkpt>
      <trkpt lat="43.62463" lon="1.40207">
        <ele>126</ele>
        <time>2022-03-18T20:00:37Z</time>
      </trkpt>
      <trkpt lat="43.62467" lon="1.40195">
        <ele>125</ele>
        <time>2022-03-18T20:00:39Z</time>
      </trkpt>
      <trkpt lat="43.62479" lon="1.3998">
        <ele>130</ele>
        <time>2022-03-18T20:01:16Z</time>
      </trkpt>
      <trkpt lat="43.62484" lon="1.39944">
        <ele>133</ele>
        <time>2022-03-18T20:01:22Z</time>
      </trkpt>
      <trkpt lat="43.6249" lon="1.39945">
        <ele>133</ele>
        <time>2022-03-18T20:01:23Z</time>
      </trkpt>
      <trkpt lat="43.62485" lon="1.39981">
        <ele>130</ele>
        <time>2022-03-18T20:01:30Z</time>
      </trkpt>
      <trkpt lat="43.62484" lon="1.40012">
        <ele>128</ele>
        <time>2022-03-18T20:01:35Z</time>
      </trkpt>
      <trkpt lat="43.62626" lon="1.40031">
        <ele>130</ele>
        <time>2022-03-18T20:02:08Z</time>
      </trkpt>
      <trkpt lat="43.6277" lon="1.40042">
        <ele>132</ele>
        <time>2022-03-18T20:02:42Z</time>
      </trkpt>
      <trkpt lat="43.62778" lon="1.40045">
        <ele>132</ele>
        <time>2022-03-18T20:02:44Z</time>
      </trkpt>
      <trkpt lat="43.62819" lon="1.40046">
        <ele>132</ele>
        <time>2022-03-18T20:02:53Z</time>
      </trkpt>
      <trkpt lat="43.62885" lon="1.40057">
        <ele>133</ele>
        <time>2022-03-18T20:03:09Z</time>
      </trkpt>
      <trkpt lat="43.62926" lon="1.40069">
        <ele>134</ele>
        <time>2022-03-18T20:03:19Z</time>
      </trkpt>
      <trkpt lat="43.62948" lon="1.40068">
        <ele>134</ele>
        <time>2022-03-18T20:03:24Z</time>
      </trkpt>
      <trkpt lat="43.62958" lon="1.4007">
        <ele>134</ele>
        <time>2022-03-18T20:03:26Z</time>
      </trkpt>
      <trkpt lat="43.63105" lon="1.40109">
        <ele>129</ele>
        <time>2022-03-18T20:04:01Z</time>
      </trkpt>
      <trkpt lat="43.63281" lon="1.40169">
        <ele>127</ele>
        <time>2022-03-18T20:04:43Z</time>
      </trkpt>
      <trkpt lat="43.63324" lon="1.40187">
        <ele>127</ele>
        <time>2022-03-18T20:04:54Z</time>
      </trkpt>
      <trkpt lat="43.6343" lon="1.40233">
        <ele>129</ele>
        <time>2022-03-18T20:05:20Z</time>
      </trkpt>
      <trkpt lat="43.63451" lon="1.4024">
        <ele>129</ele>
        <time>2022-03-18T20:05:25Z</time>
      </trkpt>
      <trkpt lat="43.63487" lon="1.40249">
        <ele>130</ele>
        <time>2022-03-18T20:05:33Z</time>
      </trkpt>
      <trkpt lat="43.63468" lon="1.40254">
        <ele>129</ele>
        <time>2022-03-18T20:05:38Z</time>
      </trkpt>
      <trkpt lat="43.63498" lon="1.40263">
        <ele>130</ele>
        <time>2022-03-18T20:05:45Z</time>
      </trkpt>
      <trkpt lat="43.63559" lon="1.40277">
        <ele>129</ele>
        <time>2022-03-18T20:06:00Z</time>
      </trkpt>
      <trkpt lat="43.63594" lon="1.40279">
        <ele>129</ele>
        <time>2022-03-18T20:06:08Z</time>
      </trkpt>
      <trkpt lat="43.63621" lon="1.40284">
        <ele>129</ele>
        <time>2022-03-18T20:06:14Z</time>
      </trkpt>
      <trkpt lat="43.63639" lon="1.40282">
        <ele>129</ele>
        <time>2022-03-18T20:06:18Z</time>
      </trkpt>
      <trkpt lat="43.63663" lon="1.40284">
        <ele>129</ele>
        <time>2022-03-18T20:06:24Z</time>
      </trkpt>
      <trkpt lat="43.63678" lon="1.40294">
        <ele>128</ele>
        <time>2022-03-18T20:06:28Z</time>
      </trkpt>
      <trkpt lat="43.63754" lon="1.40285">
        <ele>126</ele>
        <time>2022-03-18T20:06:46Z</time>
      </trkpt>
      <trkpt lat="43.638" lon="1.40283">
        <ele>126</ele>
        <time>2022-03-18T20:06:56Z</time>
      </trkpt>
      <trkpt lat="43.6384" lon="1.40273">
        <ele>128</ele>
        <time>2022-03-18T20:07:06Z</time>
      </trkpt>
      <trkpt lat="43.63848" lon="1.40268">
        <ele>128</ele>
        <time>2022-03-18T20:07:08Z</time>
      </trkpt>
      <trkpt lat="43.63865" lon="1.4026">
        <ele>129</ele>
        <time>2022-03-18T20:07:12Z</time>
      </trkpt>
      <trkpt lat="43.63899" lon="1.40258">
        <ele>130</ele>
        <time>2022-03-18T20:07:20Z</time>
      </trkpt>
      <trkpt lat="43.63952" lon="1.40235">
        <ele>129</ele>
        <time>2022-03-18T20:07:33Z</time>
      </trkpt>
      <trkpt lat="43.63993" lon="1.40209">
        <ele>129</ele>
        <time>2022-03-18T20:07:44Z</time>
      </trkpt>
      <trkpt lat="43.64012" lon="1.40193">
        <ele>130</ele>
        <time>2022-03-18T20:07:49Z</time>
      </trkpt>
      <trkpt lat="43.64018" lon="1.4019">
        <ele>130</ele>
        <time>2022-03-18T20:07:50Z</time>
      </trkpt>
      <trkpt lat="43.64061" lon="1.40186">
        <ele>129</ele>
        <time>2022-03-18T20:08:00Z</time>
      </trkpt>
      <trkpt lat="43.64118" lon="1.40153">
        <ele>130</ele>
        <time>2022-03-18T20:08:15Z</time>
      </trkpt>
      <trkpt lat="43.64132" lon="1.40143">
        <ele>130</ele>
        <time>2022-03-18T20:08:18Z</time>
      </trkpt>
      <trkpt lat="43.64139" lon="1.40133">
        <ele>131</ele>
        <time>2022-03-18T20:08:21Z</time>
      </trkpt>
      <trkpt lat="43.64153" lon="1.4013">
        <ele>131</ele>
        <time>2022-03-18T20:08:24Z</time>
      </trkpt>
      <trkpt lat="43.64162" lon="1.40124">
        <ele>131</ele>
        <time>2022-03-18T20:08:26Z</time>
      </trkpt>
      <trkpt lat="43.64217" lon="1.40072">
        <ele>131</ele>
        <time>2022-03-18T20:08:42Z</time>
      </trkpt>
      <trkpt lat="43.6421" lon="1.4006">
        <ele>132</ele>
        <time>2022-03-18T20:08:45Z</time>
      </trkpt>
      <trkpt lat="43.64199" lon="1.40052">
        <ele>132</ele>
        <time>2022-03-18T20:08:47Z</time>
      </trkpt>
      <trkpt lat="43.64192" lon="1.40043">
        <ele>132</ele>
        <time>2022-03-18T20:08:50Z</time>
      </trkpt>
      <trkpt lat="43.64178" lon="1.4003">
        <ele>132</ele>
        <time>2022-03-18T20:08:54Z</time>
      </trkpt>
      <trkpt lat="43.6415" lon="1.40018">
        <ele>132</ele>
        <time>2022-03-18T20:09:01Z</time>
      </trkpt>
      <trkpt lat="43.64152" lon="1.39991">
        <ele>132</ele>
        <time>2022-03-18T20:09:05Z</time>
      </trkpt>
      <trkpt lat="43.64154" lon="1.39984">
        <ele>132</ele>
        <time>2022-03-18T20:09:06Z</time>
      </trkpt>
      <trkpt lat="43.64154" lon="1.39978">
        <ele>132</ele>
        <time>2022-03-18T20:09:07Z</time>
      </trkpt>
      <trkpt lat="43.64193" lon="1.39968">
        <ele>131</ele>
        <time>2022-03-18T20:09:17Z</time>
      </trkpt>
      <trkpt lat="43.64201" lon="1.39962">
        <ele>131</ele>
        <time>2022-03-18T20:09:19Z</time>
      </trkpt>
      <trkpt lat="43.64229" lon="1.39934">
        <ele>131</ele>
        <time>2022-03-18T20:09:27Z</time>
      </trkpt>
      <trkpt lat="43.64243" lon="1.39927">
        <ele>130</ele>
        <time>2022-03-18T20:09:30Z</time>
      </trkpt>
      <trkpt lat="43.6426" lon="1.39925">
        <ele>130</ele>
        <time>2022-03-18T20:09:34Z</time>
      </trkpt>
      <trkpt lat="43.64279" lon="1.39927">
        <ele>130</ele>
        <time>2022-03-18T20:09:39Z</time>
      </trkpt>
      <trkpt lat="43.64345" lon="1.3995">
        <ele>129</ele>
        <time>2022-03-18T20:09:55Z</time>
      </trkpt>
      <trkpt lat="43.64395" lon="1.39959">
        <ele>128</ele>
        <time>2022-03-18T20:10:06Z</time>
      </trkpt>
      <trkpt lat="43.64461" lon="1.39961">
        <ele>127</ele>
        <time>2022-03-18T20:10:22Z</time>
      </trkpt>
      <trkpt lat="43.64498" lon="1.39951">
        <ele>127</ele>
        <time>2022-03-18T20:10:31Z</time>
      </trkpt>
      <trkpt lat="43.64516" lon="1.39958">
        <ele>128</ele>
        <time>2022-03-18T20:10:35Z</time>
      </trkpt>
      <trkpt lat="43.64547" lon="1.39961">
        <ele>129</ele>
        <time>2022-03-18T20:10:42Z</time>
      </trkpt>
      <trkpt lat="43.64557" lon="1.39961">
        <ele>130</ele>
        <time>2022-03-18T20:10:45Z</time>
      </trkpt>
      <trkpt lat="43.64573" lon="1.39955">
        <ele>130</ele>
        <time>2022-03-18T20:10:48Z</time>
      </trkpt>
      <trkpt lat="43.64605" lon="1.39936">
        <ele>131</ele>
        <time>2022-03-18T20:10:57Z</time>
      </trkpt>
      <trkpt lat="43.64633" lon="1.39933">
        <ele>130</ele>
        <time>2022-03-18T20:11:03Z</time>
      </trkpt>
      <trkpt lat="43.64693" lon="1.39937">
        <ele>131</ele>
        <time>2022-03-18T20:11:17Z</time>
      </trkpt>
      <trkpt lat="43.64739" lon="1.39947">
        <ele>131</ele>
        <time>2022-03-18T20:11:28Z</time>
      </trkpt>
      <trkpt lat="43.64815" lon="1.39971">
        <ele>131</ele>
        <time>2022-03-18T20:11:46Z</time>
      </trkpt>
      <trkpt lat="43.64872" lon="1.40002">
        <ele>130</ele>
        <time>2022-03-18T20:12:01Z</time>
      </trkpt>
      <trkpt lat="43.6489" lon="1.40014">
        <ele>129</ele>
        <time>2022-03-18T20:12:05Z</time>
      </trkpt>
      <trkpt lat="43.64931" lon="1.40052">
        <ele>127</ele>
        <time>2022-03-18T20:12:17Z</time>
      </trkpt>
      <trkpt lat="43.64976" lon="1.40076">
        <ele>127</ele>
        <time>2022-03-18T20:12:28Z</time>
      </trkpt>
      <trkpt lat="43.64988" lon="1.40087">
        <ele>127</ele>
        <time>2022-03-18T20:12:31Z</time>
      </trkpt>
      <trkpt lat="43.65004" lon="1.40097">
        <ele>127</ele>
        <time>2022-03-18T20:12:35Z</time>
      </trkpt>
      <trkpt lat="43.65024" lon="1.40115">
        <ele>127</ele>
        <time>2022-03-18T20:12:41Z</time>
      </trkpt>
      <trkpt lat="43.65031" lon="1.40126">
        <ele>127</ele>
        <time>2022-03-18T20:12:44Z</time>
      </trkpt>
      <trkpt lat="43.65049" lon="1.40146">
        <ele>127</ele>
        <time>2022-03-18T20:12:49Z</time>
      </trkpt>
      <trkpt lat="43.6511" lon="1.40203">
        <ele>126</ele>
        <time>2022-03-18T20:13:06Z</time>
      </trkpt>
      <trkpt lat="43.65137" lon="1.40233">
        <ele>125</ele>
        <time>2022-03-18T20:13:14Z</time>
      </trkpt>
      <trkpt lat="43.65179" lon="1.40284">
        <ele>125</ele>
        <time>2022-03-18T20:13:27Z</time>
      </trkpt>
      <trkpt lat="43.65194" lon="1.40294">
        <ele>126</ele>
        <time>2022-03-18T20:13:31Z</time>
      </trkpt>
      <trkpt lat="43.65253" lon="1.40357">
        <ele>127</ele>
        <time>2022-03-18T20:13:49Z</time>
      </trkpt>
      <trkpt lat="43.6528" lon="1.40393">
        <ele>127</ele>
        <time>2022-03-18T20:13:57Z</time>
      </trkpt>
      <trkpt lat="43.65317" lon="1.40415">
        <ele>129</ele>
        <time>2022-03-18T20:14:07Z</time>
      </trkpt>
      <trkpt lat="43.65328" lon="1.4043">
        <ele>129</ele>
        <time>2022-03-18T20:14:10Z</time>
      </trkpt>
      <trkpt lat="43.65331" lon="1.40442">
        <ele>128</ele>
        <time>2022-03-18T20:14:13Z</time>
      </trkpt>
      <trkpt lat="43.6534" lon="1.40447">
        <ele>128</ele>
        <time>2022-03-18T20:14:15Z</time>
      </trkpt>
      <trkpt lat="43.65357" lon="1.40468">
        <ele>127</ele>
        <time>2022-03-18T20:14:20Z</time>
      </trkpt>
      <trkpt lat="43.65372" lon="1.4048">
        <ele>126</ele>
        <time>2022-03-18T20:14:24Z</time>
      </trkpt>
      <trkpt lat="43.6538" lon="1.40484">
        <ele>126</ele>
        <time>2022-03-18T20:14:26Z</time>
      </trkpt>
      <trkpt lat="43.65398" lon="1.40482">
        <ele>127</ele>
        <time>2022-03-18T20:14:30Z</time>
      </trkpt>
      <trkpt lat="43.65405" lon="1.4049">
        <ele>126</ele>
        <time>2022-03-18T20:14:32Z</time>
      </trkpt>
      <trkpt lat="43.65429" lon="1.40525">
        <ele>125</ele>
        <time>2022-03-18T20:14:41Z</time>
      </trkpt>
      <trkpt lat="43.65444" lon="1.40532">
        <ele>125</ele>
        <time>2022-03-18T20:14:44Z</time>
      </trkpt>
      <trkpt lat="43.65455" lon="1.40543">
        <ele>125</ele>
        <time>2022-03-18T20:14:47Z</time>
      </trkpt>
      <trkpt lat="43.65478" lon="1.40547">
        <ele>125</ele>
        <time>2022-03-18T20:14:53Z</time>
      </trkpt>
      <trkpt lat="43.65485" lon="1.40552">
        <ele>125</ele>
        <time>2022-03-18T20:14:55Z</time>
      </trkpt>
      <trkpt lat="43.65513" lon="1.40562">
        <ele>126</ele>
        <time>2022-03-18T20:15:01Z</time>
      </trkpt>
      <trkpt lat="43.65528" lon="1.40579">
        <ele>125</ele>
        <time>2022-03-18T20:15:06Z</time>
      </trkpt>
      <trkpt lat="43.65547" lon="1.40585">
        <ele>125</ele>
        <time>2022-03-18T20:15:11Z</time>
      </trkpt>
      <trkpt lat="43.65584" lon="1.40589">
        <ele>126</ele>
        <time>2022-03-18T20:15:19Z</time>
      </trkpt>
      <trkpt lat="43.65606" lon="1.40588">
        <ele>126</ele>
        <time>2022-03-18T20:15:24Z</time>
      </trkpt>
      <trkpt lat="43.65663" lon="1.40591">
        <ele>125</ele>
        <time>2022-03-18T20:15:38Z</time>
      </trkpt>
      <trkpt lat="43.65668" lon="1.40589">
        <ele>126</ele>
        <time>2022-03-18T20:15:39Z</time>
      </trkpt>
      <trkpt lat="43.65676" lon="1.40575">
        <ele>126</ele>
        <time>2022-03-18T20:15:42Z</time>
      </trkpt>
      <trkpt lat="43.65686" lon="1.40539">
        <ele>126</ele>
        <time>2022-03-18T20:15:48Z</time>
      </trkpt>
      <trkpt lat="43.657" lon="1.40538">
        <ele>126</ele>
        <time>2022-03-18T20:15:52Z</time>
      </trkpt>
      <trkpt lat="43.65726" lon="1.40541">
        <ele>126</ele>
        <time>2022-03-18T20:15:58Z</time>
      </trkpt>
      <trkpt lat="43.65767" lon="1.40535">
        <ele>126</ele>
        <time>2022-03-18T20:16:07Z</time>
      </trkpt>
      <trkpt lat="43.65781" lon="1.40541">
        <ele>126</ele>
        <time>2022-03-18T20:16:11Z</time>
      </trkpt>
      <trkpt lat="43.65792" lon="1.40543">
        <ele>126</ele>
        <time>2022-03-18T20:16:13Z</time>
      </trkpt>
      <trkpt lat="43.65819" lon="1.40542">
        <ele>126</ele>
        <time>2022-03-18T20:16:20Z</time>
      </trkpt>
      <trkpt lat="43.6584" lon="1.40549">
        <ele>127</ele>
        <time>2022-03-18T20:16:25Z</time>
      </trkpt>
      <trkpt lat="43.65872" lon="1.40553">
        <ele>126</ele>
        <time>2022-03-18T20:16:32Z</time>
      </trkpt>
      <trkpt lat="43.6592" lon="1.4054">
        <ele>126</ele>
        <time>2022-03-18T20:16:44Z</time>
      </trkpt>
      <trkpt lat="43.65931" lon="1.40539">
        <ele>126</ele>
        <time>2022-03-18T20:16:46Z</time>
      </trkpt>
      <trkpt lat="43.65983" lon="1.40524">
        <ele>126</ele>
        <time>2022-03-18T20:16:59Z</time>
      </trkpt>
      <trkpt lat="43.66007" lon="1.4052">
        <ele>126</ele>
        <time>2022-03-18T20:17:04Z</time>
      </trkpt>
      <trkpt lat="43.66016" lon="1.40501">
        <ele>127</ele>
        <time>2022-03-18T20:17:08Z</time>
      </trkpt>
      <trkpt lat="43.66023" lon="1.40495">
        <ele>127</ele>
        <time>2022-03-18T20:17:10Z</time>
      </trkpt>
      <trkpt lat="43.66051" lon="1.40487">
        <ele>127</ele>
        <time>2022-03-18T20:17:17Z</time>
      </trkpt>
      <trkpt lat="43.661" lon="1.4047">
        <ele>127</ele>
        <time>2022-03-18T20:17:29Z</time>
      </trkpt>
      <trkpt lat="43.66126" lon="1.40457">
        <ele>126</ele>
        <time>2022-03-18T20:17:35Z</time>
      </trkpt>
      <trkpt lat="43.66137" lon="1.40447">
        <ele>126</ele>
        <time>2022-03-18T20:17:38Z</time>
      </trkpt>
      <trkpt lat="43.66164" lon="1.40435">
        <ele>126</ele>
        <time>2022-03-18T20:17:45Z</time>
      </trkpt>
      <trkpt lat="43.66171" lon="1.40423">
        <ele>127</ele>
        <time>2022-03-18T20:17:47Z</time>
      </trkpt>
      <trkpt lat="43.66187" lon="1.40411">
        <ele>127</ele>
        <time>2022-03-18T20:17:52Z</time>
      </trkpt>
      <trkpt lat="43.66248" lon="1.40384">
        <ele>125</ele>
        <time>2022-03-18T20:18:07Z</time>
      </trkpt>
      <trkpt lat="43.66266" lon="1.40367">
        <ele>125</ele>
        <time>2022-03-18T20:18:12Z</time>
      </trkpt>
      <trkpt lat="43.66282" lon="1.40368">
        <ele>124</ele>
        <time>2022-03-18T20:18:15Z</time>
      </trkpt>
      <trkpt lat="43.66302" lon="1.40361">
        <ele>124</ele>
        <time>2022-03-18T20:18:20Z</time>
      </trkpt>
      <trkpt lat="43.66321" lon="1.40343">
        <ele>124</ele>
        <time>2022-03-18T20:18:26Z</time>
      </trkpt>
      <trkpt lat="43.66324" lon="1.40333">
        <ele>124</ele>
        <time>2022-03-18T20:18:27Z</time>
      </trkpt>
      <trkpt lat="43.66325" lon="1.40315">
        <ele>124</ele>
        <time>2022-03-18T20:18:30Z</time>
      </trkpt>
      <trkpt lat="43.6633" lon="1.40287">
        <ele>124</ele>
        <time>2022-03-18T20:18:35Z</time>
      </trkpt>
      <trkpt lat="43.66342" lon="1.40267">
        <ele>124</ele>
        <time>2022-03-18T20:18:40Z</time>
      </trkpt>
      <trkpt lat="43.66344" lon="1.40246">
        <ele>124</ele>
        <time>2022-03-18T20:18:43Z</time>
      </trkpt>
      <trkpt lat="43.66343" lon="1.40226">
        <ele>124</ele>
        <time>2022-03-18T20:18:47Z</time>
      </trkpt>
      <trkpt lat="43.6632" lon="1.40254">
        <ele>123</ele>
        <time>2022-03-18T20:18:54Z</time>
      </trkpt>
      <trkpt lat="43.66316" lon="1.40305">
        <ele>124</ele>
        <time>2022-03-18T20:19:03Z</time>
      </trkpt>
      <trkpt lat="43.66279" lon="1.40335">
        <ele>125</ele>
        <time>2022-03-18T20:19:13Z</time>
      </trkpt>
      <trkpt lat="43.66277" lon="1.40317">
        <ele>125</ele>
        <time>2022-03-18T20:19:16Z</time>
      </trkpt>
      <trkpt lat="43.66287" lon="1.40257">
        <ele>124</ele>
        <time>2022-03-18T20:19:26Z</time>
      </trkpt>
      <trkpt lat="43.66277" lon="1.4021">
        <ele>124</ele>
        <time>2022-03-18T20:19:34Z</time>
      </trkpt>
      <trkpt lat="43.66263" lon="1.40211">
        <ele>125</ele>
        <time>2022-03-18T20:19:38Z</time>
      </trkpt>
      <trkpt lat="43.66214" lon="1.40169">
        <ele>125</ele>
        <time>2022-03-18T20:19:51Z</time>
      </trkpt>
      <trkpt lat="43.66163" lon="1.40142">
        <ele>127</ele>
        <time>2022-03-18T20:20:04Z</time>
      </trkpt>
      <trkpt lat="43.66169" lon="1.40065">
        <ele>126</ele>
        <time>2022-03-18T20:20:17Z</time>
      </trkpt>
      <trkpt lat="43.66226" lon="1.40099">
        <ele>125</ele>
        <time>2022-03-18T20:20:31Z</time>
      </trkpt>
      <trkpt lat="43.66236" lon="1.40109">
        <ele>125</ele>
        <time>2022-03-18T20:20:34Z</time>
      </trkpt>
      <trkpt lat="43.66235" lon="1.40042">
        <ele>125</ele>
        <time>2022-03-18T20:20:46Z</time>
      </trkpt>
      <trkpt lat="43.66232" lon="1.39976">
        <ele>125</ele>
        <time>2022-03-18T20:20:57Z</time>
      </trkpt>
      <trkpt lat="43.66246" lon="1.39971">
        <ele>124</ele>
        <time>2022-03-18T20:21:00Z</time>
      </trkpt>
      <trkpt lat="43.6628" lon="1.40025">
        <ele>125</ele>
        <time>2022-03-18T20:21:12Z</time>
      </trkpt>
      <trkpt lat="43.66338" lon="1.40159">
        <ele>126</ele>
        <time>2022-03-18T20:21:39Z</time>
      </trkpt>
      <trkpt lat="43.66334" lon="1.4022">
        <ele>124</ele>
        <time>2022-03-18T20:21:49Z</time>
      </trkpt>
      <trkpt lat="43.66374" lon="1.40234">
        <ele>125</ele>
        <time>2022-03-18T20:21:59Z</time>
      </trkpt>
      <trkpt lat="43.66419" lon="1.40245">
        <ele>127</ele>
        <time>2022-03-18T20:22:09Z</time>
      </trkpt>
      <trkpt lat="43.6645" lon="1.40231">
        <ele>125</ele>
        <time>2022-03-18T20:22:17Z</time>
      </trkpt>
      <trkpt lat="43.66477" lon="1.40192">
        <ele>125</ele>
        <time>2022-03-18T20:22:26Z</time>
      </trkpt>
      <trkpt lat="43.66484" lon="1.40191">
        <ele>125</ele>
        <time>2022-03-18T20:22:28Z</time>
      </trkpt>
      <trkpt lat="43.665" lon="1.40177">
        <ele>126</ele>
        <time>2022-03-18T20:22:32Z</time>
      </trkpt>
      <trkpt lat="43.66533" lon="1.40125">
        <ele>125</ele>
        <time>2022-03-18T20:22:44Z</time>
      </trkpt>
      <trkpt lat="43.66539" lon="1.40111">
        <ele>125</ele>
        <time>2022-03-18T20:22:46Z</time>
      </trkpt>
      <trkpt lat="43.66544" lon="1.40092">
        <ele>126</ele>
        <time>2022-03-18T20:22:50Z</time>
      </trkpt>
      <trkpt lat="43.66553" lon="1.40087">
        <ele>126</ele>
        <time>2022-03-18T20:22:52Z</time>
      </trkpt>
      <trkpt lat="43.6656" lon="1.40072">
        <ele>126</ele>
        <time>2022-03-18T20:22:55Z</time>
      </trkpt>
      <trkpt lat="43.66569" lon="1.40062">
        <ele>126</ele>
        <time>2022-03-18T20:22:58Z</time>
      </trkpt>
      <trkpt lat="43.66573" lon="1.4005">
        <ele>126</ele>
        <time>2022-03-18T20:23:00Z</time>
      </trkpt>
      <trkpt lat="43.66585" lon="1.40032">
        <ele>126</ele>
        <time>2022-03-18T20:23:04Z</time>
      </trkpt>
      <trkpt lat="43.66594" lon="1.39992">
        <ele>126</ele>
        <time>2022-03-18T20:23:11Z</time>
      </trkpt>
      <trkpt lat="43.66607" lon="1.39949">
        <ele>125</ele>
        <time>2022-03-18T20:23:19Z</time>
      </trkpt>
      <trkpt lat="43.6661" lon="1.39925">
        <ele>125</ele>
        <time>2022-03-18T20:23:23Z</time>
      </trkpt>
      <trkpt lat="43.66623" lon="1.39886">
        <ele>124</ele>
        <time>2022-03-18T20:23:31Z</time>
      </trkpt>
      <trkpt lat="43.66627" lon="1.39856">
        <ele>124</ele>
        <time>2022-03-18T20:23:36Z</time>
      </trkpt>
      <trkpt lat="43.66625" lon="1.39804">
        <ele>125</ele>
        <time>2022-03-18T20:23:45Z</time>
      </trkpt>
      <trkpt lat="43.66622" lon="1.39793">
        <ele>125</ele>
        <time>2022-03-18T20:23:46Z</time>
      </trkpt>
      <trkpt lat="43.66627" lon="1.39777">
        <ele>125</ele>
        <time>2022-03-18T20:23:49Z</time>
      </trkpt>
      <trkpt lat="43.66624" lon="1.39685">
        <ele>125</ele>
        <time>2022-03-18T20:24:05Z</time>
      </trkpt>
      <trkpt lat="43.66616" lon="1.39638">
        <ele>125</ele>
        <time>2022-03-18T20:24:13Z</time>
      </trkpt>
      <trkpt lat="43.66614" lon="1.39615">
        <ele>124</ele>
        <time>2022-03-18T20:24:17Z</time>
      </trkpt>
      <trkpt lat="43.66606" lon="1.39591">
        <ele>124</ele>
        <time>2022-03-18T20:24:22Z</time>
      </trkpt>
      <trkpt lat="43.66605" lon="1.39571">
        <ele>124</ele>
        <time>2022-03-18T20:24:25Z</time>
      </trkpt>
      <trkpt lat="43.66602" lon="1.39555">
        <ele>124</ele>
        <time>2022-03-18T20:24:28Z</time>
      </trkpt>
      <trkpt lat="43.66597" lon="1.39541">
        <ele>125</ele>
        <time>2022-03-18T20:24:30Z</time>
      </trkpt>
      <trkpt lat="43.66595" lon="1.39528">
        <ele>125</ele>
        <time>2022-03-18T20:24:33Z</time>
      </trkpt>
      <trkpt lat="43.66596" lon="1.39508">
        <ele>125</ele>
        <time>2022-03-18T20:24:36Z</time>
      </trkpt>
      <trkpt lat="43.66595" lon="1.39479">
        <ele>125</ele>
        <time>2022-03-18T20:24:41Z</time>
      </trkpt>
      <trkpt lat="43.66589" lon="1.39471">
        <ele>126</ele>
        <time>2022-03-18T20:24:43Z</time>
      </trkpt>
      <trkpt lat="43.66582" lon="1.39431">
        <ele>128</ele>
        <time>2022-03-18T20:24:50Z</time>
      </trkpt>
      <trkpt lat="43.66578" lon="1.39377">
        <ele>128</ele>
        <time>2022-03-18T20:24:59Z</time>
      </trkpt>
      <trkpt lat="43.66572" lon="1.39353">
        <ele>127</ele>
        <time>2022-03-18T20:25:03Z</time>
      </trkpt>
      <trkpt lat="43.6657" lon="1.39309">
        <ele>127</ele>
        <time>2022-03-18T20:25:11Z</time>
      </trkpt>
      <trkpt lat="43.66571" lon="1.39283">
        <ele>126</ele>
        <time>2022-03-18T20:25:15Z</time>
      </trkpt>
      <trkpt lat="43.66553" lon="1.39248">
        <ele>125</ele>
        <time>2022-03-18T20:25:22Z</time>
      </trkpt>
      <trkpt lat="43.66556" lon="1.39237">
        <ele>125</ele>
        <time>2022-03-18T20:25:24Z</time>
      </trkpt>
      <trkpt lat="43.66557" lon="1.39225">
        <ele>125</ele>
        <time>2022-03-18T20:25:26Z</time>
      </trkpt>
      <trkpt lat="43.66555" lon="1.39214">
        <ele>125</ele>
        <time>2022-03-18T20:25:28Z</time>
      </trkpt>
      <trkpt lat="43.66564" lon="1.39198">
        <ele>125</ele>
        <time>2022-03-18T20:25:32Z</time>
      </trkpt>
      <trkpt lat="43.6658" lon="1.39093">
        <ele>127</ele>
        <time>2022-03-18T20:25:50Z</time>
      </trkpt>
      <trkpt lat="43.66592" lon="1.39046">
        <ele>127</ele>
        <time>2022-03-18T20:25:58Z</time>
      </trkpt>
      <trkpt lat="43.66603" lon="1.38973">
        <ele>126</ele>
        <time>2022-03-18T20:26:11Z</time>
      </trkpt>
      <trkpt lat="43.66609" lon="1.38848">
        <ele>123</ele>
        <time>2022-03-18T20:26:32Z</time>
      </trkpt>
      <trkpt lat="43.66608" lon="1.38831">
        <ele>123</ele>
        <time>2022-03-18T20:26:35Z</time>
      </trkpt>
      <trkpt lat="43.66601" lon="1.38791">
        <ele>123</ele>
        <time>2022-03-18T20:26:42Z</time>
      </trkpt>
      <trkpt lat="43.66595" lon="1.38773">
        <ele>124</ele>
        <time>2022-03-18T20:26:45Z</time>
      </trkpt>
      <trkpt lat="43.66569" lon="1.38723">
        <ele>126</ele>
        <time>2022-03-18T20:26:56Z</time>
      </trkpt>
      <trkpt lat="43.6655" lon="1.38686">
        <ele>130</ele>
        <time>2022-03-18T20:27:03Z</time>
      </trkpt>
      <trkpt lat="43.66545" lon="1.38677">
        <ele>131</ele>
        <time>2022-03-18T20:27:05Z</time>
      </trkpt>
      <trkpt lat="43.66542" lon="1.38664">
        <ele>132</ele>
        <time>2022-03-18T20:27:07Z</time>
      </trkpt>
      <trkpt lat="43.66552" lon="1.38638">
        <ele>131</ele>
        <time>2022-03-18T20:27:12Z</time>
      </trkpt>
      <trkpt lat="43.66577" lon="1.38599">
        <ele>130</ele>
        <time>2022-03-18T20:27:21Z</time>
      </trkpt>
      <trkpt lat="43.66644" lon="1.38504">
        <ele>126</ele>
        <time>2022-03-18T20:27:44Z</time>
      </trkpt>
      <trkpt lat="43.66649" lon="1.38492">
        <ele>126</ele>
        <time>2022-03-18T20:27:46Z</time>
      </trkpt>
      <trkpt lat="43.6665" lon="1.38479">
        <ele>127</ele>
        <time>2022-03-18T20:27:48Z</time>
      </trkpt>
      <trkpt lat="43.6665" lon="1.38469">
        <ele>128</ele>
        <time>2022-03-18T20:27:50Z</time>
      </trkpt>
      <trkpt lat="43.66645" lon="1.3846">
        <ele>129</ele>
        <time>2022-03-18T20:27:52Z</time>
      </trkpt>
      <trkpt lat="43.66633" lon="1.38446">
        <ele>131</ele>
        <time>2022-03-18T20:27:56Z</time>
      </trkpt>
      <trkpt lat="43.66624" lon="1.38431">
        <ele>133</ele>
        <time>2022-03-18T20:27:59Z</time>
      </trkpt>
      <trkpt lat="43.66652" lon="1.38393">
        <ele>134</ele>
        <time>2022-03-18T20:28:08Z</time>
      </trkpt>
      <trkpt lat="43.66682" lon="1.38345">
        <ele>136</ele>
        <time>2022-03-18T20:28:19Z</time>
      </trkpt>
      <trkpt lat="43.66703" lon="1.38299">
        <ele>137</ele>
        <time>2022-03-18T20:28:28Z</time>
      </trkpt>
      <trkpt lat="43.66714" lon="1.38266">
        <ele>138</ele>
        <time>2022-03-18T20:28:34Z</time>
      </trkpt>
      <trkpt lat="43.66717" lon="1.38255">
        <ele>139</ele>
        <time>2022-03-18T20:28:36Z</time>
      </trkpt>
      <trkpt lat="43.6672" lon="1.38215">
        <ele>140</ele>
        <time>2022-03-18T20:28:43Z</time>
      </trkpt>
      <trkpt lat="43.66734" lon="1.38039">
        <ele>141</ele>
        <time>2022-03-18T20:29:13Z</time>
      </trkpt>
      <trkpt lat="43.66746" lon="1.38026">
        <ele>140</ele>
        <time>2022-03-18T20:29:16Z</time>
      </trkpt>
      <trkpt lat="43.66764" lon="1.38014">
        <ele>140</ele>
        <time>2022-03-18T20:29:21Z</time>
      </trkpt>
      <trkpt lat="43.6679" lon="1.38006">
        <ele>140</ele>
        <time>2022-03-18T20:29:27Z</time>
      </trkpt>
      <trkpt lat="43.66814" lon="1.38007">
        <ele>140</ele>
        <time>2022-03-18T20:29:33Z</time>
      </trkpt>
      <trkpt lat="43.66827" lon="1.38001">
        <ele>140</ele>
        <time>2022-03-18T20:29:36Z</time>
      </trkpt>
      <trkpt lat="43.66846" lon="1.3796">
        <ele>141</ele>
        <time>2022-03-18T20:29:44Z</time>
      </trkpt>
      <trkpt lat="43.66843" lon="1.37954">
        <ele>141</ele>
        <time>2022-03-18T20:29:45Z</time>
      </trkpt>
      <trkpt lat="43.66844" lon="1.37947">
        <ele>142</ele>
        <time>2022-03-18T20:29:47Z</time>
      </trkpt>
      <trkpt lat="43.66841" lon="1.37936">
        <ele>142</ele>
        <time>2022-03-18T20:29:49Z</time>
      </trkpt>
      <trkpt lat="43.66808" lon="1.37884">
        <ele>142</ele>
        <time>2022-03-18T20:30:00Z</time>
      </trkpt>
      <trkpt lat="43.66838" lon="1.37794">
        <ele>142</ele>
        <time>2022-03-18T20:30:17Z</time>
      </trkpt>
      <trkpt lat="43.66846" lon="1.37775">
        <ele>142</ele>
        <time>2022-03-18T20:30:21Z</time>
      </trkpt>
      <trkpt lat="43.66872" lon="1.37726">
        <ele>142</ele>
        <time>2022-03-18T20:30:31Z</time>
      </trkpt>
      <trkpt lat="43.66887" lon="1.37704">
        <ele>142</ele>
        <time>2022-03-18T20:30:36Z</time>
      </trkpt>
      <trkpt lat="43.66935" lon="1.37627">
        <ele>142</ele>
        <time>2022-03-18T20:30:53Z</time>
      </trkpt>
      <trkpt lat="43.66936" lon="1.37629">
        <ele>141</ele>
        <time>2022-03-18T20:30:54Z</time>
      </trkpt>
      <trkpt lat="43.66935" lon="1.37627">
        <ele>142</ele>
        <time>2022-03-18T20:30:54Z</time>
      </trkpt>
      <trkpt lat="43.66986" lon="1.37559">
        <ele>141</ele>
        <time>2022-03-18T20:31:11Z</time>
      </trkpt>
      <trkpt lat="43.67006" lon="1.37521">
        <ele>142</ele>
        <time>2022-03-18T20:31:19Z</time>
      </trkpt>
      <trkpt lat="43.67012" lon="1.37504">
        <ele>142</ele>
        <time>2022-03-18T20:31:22Z</time>
      </trkpt>
      <trkpt lat="43.67027" lon="1.37508">
        <ele>142</ele>
        <time>2022-03-18T20:31:25Z</time>
      </trkpt>
      <trkpt lat="43.67031" lon="1.375">
        <ele>142</ele>
        <time>2022-03-18T20:31:27Z</time>
      </trkpt>
      <trkpt lat="43.67031" lon="1.37442">
        <ele>141</ele>
        <time>2022-03-18T20:31:37Z</time>
      </trkpt>
      <trkpt lat="43.67034" lon="1.37438">
        <ele>141</ele>
        <time>2022-03-18T20:31:38Z</time>
      </trkpt>
      <trkpt lat="43.67036" lon="1.37435">
        <ele>141</ele>
        <time>2022-03-18T20:31:38Z</time>
      </trkpt>
      <trkpt lat="43.67037" lon="1.37307">
        <ele>141</ele>
        <time>2022-03-18T20:32:00Z</time>
      </trkpt>
      <trkpt lat="43.6702" lon="1.37307">
        <ele>141</ele>
        <time>2022-03-18T20:32:04Z</time>
      </trkpt>
      <trkpt lat="43.67019" lon="1.37272">
        <ele>141</ele>
        <time>2022-03-18T20:32:10Z</time>
      </trkpt>
      <trkpt lat="43.67016" lon="1.37251">
        <ele>141</ele>
        <time>2022-03-18T20:32:14Z</time>
      </trkpt>
      <trkpt lat="43.67008" lon="1.37206">
        <ele>141</ele>
        <time>2022-03-18T20:32:21Z</time>
      </trkpt>
      <trkpt lat="43.67005" lon="1.37176">
        <ele>142</ele>
        <time>2022-03-18T20:32:27Z</time>
      </trkpt>
      <trkpt lat="43.67004" lon="1.37139">
        <ele>142</ele>
        <time>2022-03-18T20:32:33Z</time>
      </trkpt>
      <trkpt lat="43.67005" lon="1.36986">
        <ele>143</ele>
        <time>2022-03-18T20:32:59Z</time>
      </trkpt>
      <trkpt lat="43.67001" lon="1.36909">
        <ele>144</ele>
        <time>2022-03-18T20:33:12Z</time>
      </trkpt>
      <trkpt lat="43.66995" lon="1.36844">
        <ele>145</ele>
        <time>2022-03-18T20:33:23Z</time>
      </trkpt>
      <trkpt lat="43.66996" lon="1.3681">
        <ele>145</ele>
        <time>2022-03-18T20:33:28Z</time>
      </trkpt>
      <trkpt lat="43.67004" lon="1.36793">
        <ele>144</ele>
        <time>2022-03-18T20:33:32Z</time>
      </trkpt>
      <trkpt lat="43.67008" lon="1.36797">
        <ele>144</ele>
        <time>2022-03-18T20:33:33Z</time>
      </trkpt>
      <trkpt lat="43.67023" lon="1.36784">
        <ele>144</ele>
        <time>2022-03-18T20:33:37Z</time>
      </trkpt>
      <trkpt lat="43.67083" lon="1.36743">
        <ele>143</ele>
        <time>2022-03-18T20:33:53Z</time>
      </trkpt>
      <trkpt lat="43.67096" lon="1.36732">
        <ele>143</ele>
        <time>2022-03-18T20:33:56Z</time>
      </trkpt>
      <trkpt lat="43.67125" lon="1.36713">
        <ele>143</ele>
        <time>2022-03-18T20:34:04Z</time>
      </trkpt>
      <trkpt lat="43.67138" lon="1.36709">
        <ele>143</ele>
        <time>2022-03-18T20:34:07Z</time>
      </trkpt>
      <trkpt lat="43.67148" lon="1.36709">
        <ele>143</ele>
        <time>2022-03-18T20:34:09Z</time>
      </trkpt>
      <trkpt lat="43.67159" lon="1.36711">
        <ele>143</ele>
        <time>2022-03-18T20:34:12Z</time>
      </trkpt>
      <trkpt lat="43.6727" lon="1.36755">
        <ele>141</ele>
        <time>2022-03-18T20:34:39Z</time>
      </trkpt>
      <trkpt lat="43.67282" lon="1.36765">
        <ele>141</ele>
        <time>2022-03-18T20:34:42Z</time>
      </trkpt>
      <trkpt lat="43.67287" lon="1.36767">
        <ele>141</ele>
        <time>2022-03-18T20:34:43Z</time>
      </trkpt>
      <trkpt lat="43.67293" lon="1.36763">
        <ele>141</ele>
        <time>2022-03-18T20:34:45Z</time>
      </trkpt>
      <trkpt lat="43.67315" lon="1.36772">
        <ele>141</ele>
        <time>2022-03-18T20:34:50Z</time>
      </trkpt>
      <trkpt lat="43.67333" lon="1.36785">
        <ele>141</ele>
        <time>2022-03-18T20:34:55Z</time>
      </trkpt>
      <trkpt lat="43.67365" lon="1.36797">
        <ele>141</ele>
        <time>2022-03-18T20:35:03Z</time>
      </trkpt>
      <trkpt lat="43.67405" lon="1.36806">
        <ele>142</ele>
        <time>2022-03-18T20:35:12Z</time>
      </trkpt>
      <trkpt lat="43.67436" lon="1.36808">
        <ele>142</ele>
        <time>2022-03-18T20:35:19Z</time>
      </trkpt>
      <trkpt lat="43.67466" lon="1.36805">
        <ele>142</ele>
        <time>2022-03-18T20:35:26Z</time>
      </trkpt>
      <trkpt lat="43.67626" lon="1.36774">
        <ele>138</ele>
        <time>2022-03-18T20:36:04Z</time>
      </trkpt>
      <trkpt lat="43.67724" lon="1.36773">
        <ele>138</ele>
        <time>2022-03-18T20:36:27Z</time>
      </trkpt>
      <trkpt lat="43.67769" lon="1.36769">
        <ele>139</ele>
        <time>2022-03-18T20:36:38Z</time>
      </trkpt>
      <trkpt lat="43.67885" lon="1.3674">
        <ele>140</ele>
        <time>2022-03-18T20:37:05Z</time>
      </trkpt>
      <trkpt lat="43.6789" lon="1.36735">
        <ele>140</ele>
        <time>2022-03-18T20:37:07Z</time>
      </trkpt>
      <trkpt lat="43.67916" lon="1.36731">
        <ele>141</ele>
        <time>2022-03-18T20:37:13Z</time>
      </trkpt>
      <trkpt lat="43.67959" lon="1.36719">
        <ele>141</ele>
        <time>2022-03-18T20:37:23Z</time>
      </trkpt>
      <trkpt lat="43.67963" lon="1.3671">
        <ele>141</ele>
        <time>2022-03-18T20:37:25Z</time>
      </trkpt>
      <trkpt lat="43.67978" lon="1.3671">
        <ele>141</ele>
        <time>2022-03-18T20:37:28Z</time>
      </trkpt>
      <trkpt lat="43.67991" lon="1.36707">
        <ele>141</ele>
        <time>2022-03-18T20:37:31Z</time>
      </trkpt>
      <trkpt lat="43.68018" lon="1.36698">
        <ele>140</ele>
        <time>2022-03-18T20:37:38Z</time>
      </trkpt>
      <trkpt lat="43.68083" lon="1.36669">
        <ele>139</ele>
        <time>2022-03-18T20:37:54Z</time>
      </trkpt>
      <trkpt lat="43.68153" lon="1.36636">
        <ele>138</ele>
        <time>2022-03-18T20:38:11Z</time>
      </trkpt>
      <trkpt lat="43.6816" lon="1.3664">
        <ele>138</ele>
        <time>2022-03-18T20:38:13Z</time>
      </trkpt>
      <trkpt lat="43.68183" lon="1.36633">
        <ele>139</ele>
        <time>2022-03-18T20:38:18Z</time>
      </trkpt>
      <trkpt lat="43.68187" lon="1.36638">
        <ele>139</ele>
        <time>2022-03-18T20:38:20Z</time>
      </trkpt>
      <trkpt lat="43.68206" lon="1.36628">
        <ele>139</ele>
        <time>2022-03-18T20:38:24Z</time>
      </trkpt>
      <trkpt lat="43.68275" lon="1.3658">
        <ele>140</ele>
        <time>2022-03-18T20:38:42Z</time>
      </trkpt>
      <trkpt lat="43.68293" lon="1.36572">
        <ele>139</ele>
        <time>2022-03-18T20:38:47Z</time>
      </trkpt>
      <trkpt lat="43.68297" lon="1.36574">
        <ele>139</ele>
        <time>2022-03-18T20:38:48Z</time>
      </trkpt>
      <trkpt lat="43.683" lon="1.36572">
        <ele>139</ele>
        <time>2022-03-18T20:38:49Z</time>
      </trkpt>
      <trkpt lat="43.68303" lon="1.3657">
        <ele>139</ele>
        <time>2022-03-18T20:38:49Z</time>
      </trkpt>
      <trkpt lat="43.68305" lon="1.36562">
        <ele>139</ele>
        <time>2022-03-18T20:38:51Z</time>
      </trkpt>
      <trkpt lat="43.68316" lon="1.36551">
        <ele>139</ele>
        <time>2022-03-18T20:38:54Z</time>
      </trkpt>
      <trkpt lat="43.68344" lon="1.36536">
        <ele>139</ele>
        <time>2022-03-18T20:39:01Z</time>
      </trkpt>
      <trkpt lat="43.68373" lon="1.36516">
        <ele>139</ele>
        <time>2022-03-18T20:39:08Z</time>
      </trkpt>
      <trkpt lat="43.68422" lon="1.36476">
        <ele>138</ele>
        <time>2022-03-18T20:39:22Z</time>
      </trkpt>
      <trkpt lat="43.68449" lon="1.36452">
        <ele>139</ele>
        <time>2022-03-18T20:39:29Z</time>
      </trkpt>
      <trkpt lat="43.68474" lon="1.36428">
        <ele>140</ele>
        <time>2022-03-18T20:39:36Z</time>
      </trkpt>
      <trkpt lat="43.68543" lon="1.36352">
        <ele>140</ele>
        <time>2022-03-18T20:39:57Z</time>
      </trkpt>
      <trkpt lat="43.68602" lon="1.36293">
        <ele>140</ele>
        <time>2022-03-18T20:40:14Z</time>
      </trkpt>
      <trkpt lat="43.68628" lon="1.36277">
        <ele>140</ele>
        <time>2022-03-18T20:40:21Z</time>
      </trkpt>
      <trkpt lat="43.68657" lon="1.36266">
        <ele>140</ele>
        <time>2022-03-18T20:40:28Z</time>
      </trkpt>
      <trkpt lat="43.68663" lon="1.36261">
        <ele>140</ele>
        <time>2022-03-18T20:40:29Z</time>
      </trkpt>
      <trkpt lat="43.68669" lon="1.3626">
        <ele>140</ele>
        <time>2022-03-18T20:40:31Z</time>
      </trkpt>
      <trkpt lat="43.68713" lon="1.36239">
        <ele>140</ele>
        <time>2022-03-18T20:40:42Z</time>
      </trkpt>
      <trkpt lat="43.68749" lon="1.36208">
        <ele>140</ele>
        <time>2022-03-18T20:40:51Z</time>
      </trkpt>
      <trkpt lat="43.68783" lon="1.36176">
        <ele>141</ele>
        <time>2022-03-18T20:41:01Z</time>
      </trkpt>
      <trkpt lat="43.68812" lon="1.36153">
        <ele>143</ele>
        <time>2022-03-18T20:41:09Z</time>
      </trkpt>
      <trkpt lat="43.68816" lon="1.36168">
        <ele>143</ele>
        <time>2022-03-18T20:41:12Z</time>
      </trkpt>
      <trkpt lat="43.68823" lon="1.36161">
        <ele>143</ele>
        <time>2022-03-18T20:41:14Z</time>
      </trkpt>
      <trkpt lat="43.68845" lon="1.3617">
        <ele>144</ele>
        <time>2022-03-18T20:41:19Z</time>
      </trkpt>
      <trkpt lat="43.68859" lon="1.36173">
        <ele>144</ele>
        <time>2022-03-18T20:41:22Z</time>
      </trkpt>
      <trkpt lat="43.68859" lon="1.36171">
        <ele>144</ele>
        <time>2022-03-18T20:41:23Z</time>
      </trkpt>
      <trkpt lat="43.68857" lon="1.36189">
        <ele>143</ele>
        <time>2022-03-18T20:41:26Z</time>
      </trkpt>
      <trkpt lat="43.68877" lon="1.36213">
        <ele>143</ele>
        <time>2022-03-18T20:41:32Z</time>
      </trkpt>
      <trkpt lat="43.68904" lon="1.36225">
        <ele>143</ele>
        <time>2022-03-18T20:41:38Z</time>
      </trkpt>
      <trkpt lat="43.68922" lon="1.36238">
        <ele>143</ele>
        <time>2022-03-18T20:41:43Z</time>
      </trkpt>
      <trkpt lat="43.68933" lon="1.36272">
        <ele>142</ele>
        <time>2022-03-18T20:41:50Z</time>
      </trkpt>
      <trkpt lat="43.6893" lon="1.36293">
        <ele>142</ele>
        <time>2022-03-18T20:41:53Z</time>
      </trkpt>
      <trkpt lat="43.68923" lon="1.36328">
        <ele>143</ele>
        <time>2022-03-18T20:41:59Z</time>
      </trkpt>
      <trkpt lat="43.68913" lon="1.36325">
        <ele>143</ele>
        <time>2022-03-18T20:42:02Z</time>
      </trkpt>
      <trkpt lat="43.68906" lon="1.36311">
        <ele>143</ele>
        <time>2022-03-18T20:42:05Z</time>
      </trkpt>
      <trkpt lat="43.68889" lon="1.36309">
        <ele>143</ele>
        <time>2022-03-18T20:42:09Z</time>
      </trkpt>
      <trkpt lat="43.68879" lon="1.36294">
        <ele>143</ele>
        <time>2022-03-18T20:42:12Z</time>
      </trkpt>
      <trkpt lat="43.68878" lon="1.36283">
        <ele>143</ele>
        <time>2022-03-18T20:42:14Z</time>
      </trkpt>
      <trkpt lat="43.68868" lon="1.36273">
        <ele>142</ele>
        <time>2022-03-18T20:42:17Z</time>
      </trkpt>
      <trkpt lat="43.68845" lon="1.36267">
        <ele>142</ele>
        <time>2022-03-18T20:42:22Z</time>
      </trkpt>
      <trkpt lat="43.6885" lon="1.36294">
        <ele>142</ele>
        <time>2022-03-18T20:42:27Z</time>
      </trkpt>
      <trkpt lat="43.68855" lon="1.36311">
        <ele>142</ele>
        <time>2022-03-18T20:42:30Z</time>
      </trkpt>
      <trkpt lat="43.68862" lon="1.36339">
        <ele>142</ele>
        <time>2022-03-18T20:42:35Z</time>
      </trkpt>
      <trkpt lat="43.68868" lon="1.36348">
        <ele>143</ele>
        <time>2022-03-18T20:42:37Z</time>
      </trkpt>
      <trkpt lat="43.68878" lon="1.3636">
        <ele>143</ele>
        <time>2022-03-18T20:42:40Z</time>
      </trkpt>
      <trkpt lat="43.68889" lon="1.36361">
        <ele>143</ele>
        <time>2022-03-18T20:42:43Z</time>
      </trkpt>
      <trkpt lat="43.68905" lon="1.36345">
        <ele>143</ele>
        <time>2022-03-18T20:42:47Z</time>
      </trkpt>
      <trkpt lat="43.68915" lon="1.36346">
        <ele>143</ele>
        <time>2022-03-18T20:42:50Z</time>
      </trkpt>
      <trkpt lat="43.68933" lon="1.36357">
        <ele>142</ele>
        <time>2022-03-18T20:42:54Z</time>
      </trkpt>
      <trkpt lat="43.68948" lon="1.36359">
        <ele>141</ele>
        <time>2022-03-18T20:42:58Z</time>
      </trkpt>
      <trkpt lat="43.6896" lon="1.36358">
        <ele>141</ele>
        <time>2022-03-18T20:43:01Z</time>
      </trkpt>
      <trkpt lat="43.68963" lon="1.36363">
        <ele>140</ele>
        <time>2022-03-18T20:43:02Z</time>
      </trkpt>
      <trkpt lat="43.68969" lon="1.36383">
        <ele>139</ele>
        <time>2022-03-18T20:43:05Z</time>
      </trkpt>
      <trkpt lat="43.68977" lon="1.364">
        <ele>138</ele>
        <time>2022-03-18T20:43:09Z</time>
      </trkpt>
      <trkpt lat="43.68988" lon="1.36415">
        <ele>136</ele>
        <time>2022-03-18T20:43:12Z</time>
      </trkpt>
      <trkpt lat="43.69001" lon="1.36421">
        <ele>135</ele>
        <time>2022-03-18T20:43:16Z</time>
      </trkpt>
      <trkpt lat="43.68992" lon="1.36426">
        <ele>135</ele>
        <time>2022-03-18T20:43:18Z</time>
      </trkpt>
      <trkpt lat="43.68972" lon="1.3643">
        <ele>136</ele>
        <time>2022-03-18T20:43:23Z</time>
      </trkpt>
      <trkpt lat="43.68961" lon="1.36436">
        <ele>137</ele>
        <time>2022-03-18T20:43:25Z</time>
      </trkpt>
      <trkpt lat="43.68944" lon="1.36451">
        <ele>137</ele>
        <time>2022-03-18T20:43:30Z</time>
      </trkpt>
      <trkpt lat="43.68923" lon="1.36457">
        <ele>138</ele>
        <time>2022-03-18T20:43:35Z</time>
      </trkpt>
      <trkpt lat="43.68914" lon="1.36439">
        <ele>140</ele>
        <time>2022-03-18T20:43:39Z</time>
      </trkpt>
      <trkpt lat="43.68893" lon="1.36416">
        <ele>143</ele>
        <time>2022-03-18T20:43:45Z</time>
      </trkpt>
      <trkpt lat="43.6886" lon="1.3643">
        <ele>143</ele>
        <time>2022-03-18T20:43:53Z</time>
      </trkpt>
      <trkpt lat="43.68829" lon="1.36421">
        <ele>145</ele>
        <time>2022-03-18T20:44:00Z</time>
      </trkpt>
      <trkpt lat="43.68818" lon="1.36429">
        <ele>144</ele>
        <time>2022-03-18T20:44:03Z</time>
      </trkpt>
      <trkpt lat="43.688" lon="1.3643">
        <ele>144</ele>
        <time>2022-03-18T20:44:08Z</time>
      </trkpt>
      <trkpt lat="43.68791" lon="1.36442">
        <ele>144</ele>
        <time>2022-03-18T20:44:10Z</time>
      </trkpt>
      <trkpt lat="43.68778" lon="1.36451">
        <ele>144</ele>
        <time>2022-03-18T20:44:14Z</time>
      </trkpt>
      <trkpt lat="43.68774" lon="1.36482">
        <ele>143</ele>
        <time>2022-03-18T20:44:19Z</time>
      </trkpt>
      <trkpt lat="43.68764" lon="1.36491">
        <ele>143</ele>
        <time>2022-03-18T20:44:22Z</time>
      </trkpt>
      <trkpt lat="43.6876" lon="1.36505">
        <ele>142</ele>
        <time>2022-03-18T20:44:25Z</time>
      </trkpt>
      <trkpt lat="43.68761" lon="1.36509">
        <ele>142</ele>
        <time>2022-03-18T20:44:25Z</time>
      </trkpt>
      <trkpt lat="43.68766" lon="1.36513">
        <ele>142</ele>
        <time>2022-03-18T20:44:27Z</time>
      </trkpt>
      <trkpt lat="43.68765" lon="1.36525">
        <ele>141</ele>
        <time>2022-03-18T20:44:29Z</time>
      </trkpt>
      <trkpt lat="43.68768" lon="1.36536">
        <ele>140</ele>
        <time>2022-03-18T20:44:31Z</time>
      </trkpt>
      <trkpt lat="43.6877" lon="1.36552">
        <ele>139</ele>
        <time>2022-03-18T20:44:33Z</time>
      </trkpt>
      <trkpt lat="43.68781" lon="1.36569">
        <ele>137</ele>
        <time>2022-03-18T20:44:37Z</time>
      </trkpt>
      <trkpt lat="43.68783" lon="1.3657">
        <ele>137</ele>
        <time>2022-03-18T20:44:38Z</time>
      </trkpt>
      <trkpt lat="43.68792" lon="1.36564">
        <ele>137</ele>
        <time>2022-03-18T20:44:40Z</time>
      </trkpt>
      <trkpt lat="43.688" lon="1.36563">
        <ele>136</ele>
        <time>2022-03-18T20:44:42Z</time>
      </trkpt>
      <trkpt lat="43.68804" lon="1.36554">
        <ele>137</ele>
        <time>2022-03-18T20:44:44Z</time>
      </trkpt>
      <trkpt lat="43.68815" lon="1.36543">
        <ele>137</ele>
        <time>2022-03-18T20:44:47Z</time>
      </trkpt>
      <trkpt lat="43.68826" lon="1.36545">
        <ele>137</ele>
        <time>2022-03-18T20:44:49Z</time>
      </trkpt>
      <trkpt lat="43.68834" lon="1.36537">
        <ele>137</ele>
        <time>2022-03-18T20:44:52Z</time>
      </trkpt>
      <trkpt lat="43.68851" lon="1.36532">
        <ele>136</ele>
        <time>2022-03-18T20:44:56Z</time>
      </trkpt>
      <trkpt lat="43.68876" lon="1.36506">
        <ele>137</ele>
        <time>2022-03-18T20:45:03Z</time>
      </trkpt>
      <trkpt lat="43.68881" lon="1.36506">
        <ele>137</ele>
        <time>2022-03-18T20:45:04Z</time>
      </trkpt>
      <trkpt lat="43.68887" lon="1.36489">
        <ele>138</ele>
        <time>2022-03-18T20:45:07Z</time>
      </trkpt>
      <trkpt lat="43.68898" lon="1.36476">
        <ele>138</ele>
        <time>2022-03-18T20:45:11Z</time>
      </trkpt>
      <trkpt lat="43.68923" lon="1.36457">
        <ele>138</ele>
        <time>2022-03-18T20:45:18Z</time>
      </trkpt>
      <trkpt lat="43.68944" lon="1.36451">
        <ele>137</ele>
        <time>2022-03-18T20:45:23Z</time>
      </trkpt>
      <trkpt lat="43.68961" lon="1.36436">
        <ele>137</ele>
        <time>2022-03-18T20:45:27Z</time>
      </trkpt>
      <trkpt lat="43.68972" lon="1.3643">
        <ele>136</ele>
        <time>2022-03-18T20:45:30Z</time>
      </trkpt>
      <trkpt lat="43.68992" lon="1.36426">
        <ele>135</ele>
        <time>2022-03-18T20:45:35Z</time>
      </trkpt>
      <trkpt lat="43.69008" lon="1.36418">
        <ele>134</ele>
        <time>2022-03-18T20:45:39Z</time>
      </trkpt>
      <trkpt lat="43.69016" lon="1.36405">
        <ele>134</ele>
        <time>2022-03-18T20:45:42Z</time>
      </trkpt>
      <trkpt lat="43.69021" lon="1.36404">
        <ele>134</ele>
        <time>2022-03-18T20:45:43Z</time>
      </trkpt>
      <trkpt lat="43.69025" lon="1.36407">
        <ele>133</ele>
        <time>2022-03-18T20:45:44Z</time>
      </trkpt>
      <trkpt lat="43.69042" lon="1.36443">
        <ele>130</ele>
        <time>2022-03-18T20:45:51Z</time>
      </trkpt>
      <trkpt lat="43.69047" lon="1.36477">
        <ele>128</ele>
        <time>2022-03-18T20:45:57Z</time>
      </trkpt>
      <trkpt lat="43.69079" lon="1.36534">
        <ele>124</ele>
        <time>2022-03-18T20:46:09Z</time>
      </trkpt>
      <trkpt lat="43.69101" lon="1.36542">
        <ele>123</ele>
        <time>2022-03-18T20:46:14Z</time>
      </trkpt>
      <trkpt lat="43.69122" lon="1.36553">
        <ele>123</ele>
        <time>2022-03-18T20:46:20Z</time>
      </trkpt>
      <trkpt lat="43.69132" lon="1.36559">
        <ele>123</ele>
        <time>2022-03-18T20:46:22Z</time>
      </trkpt>
      <trkpt lat="43.69159" lon="1.36592">
        <ele>121</ele>
        <time>2022-03-18T20:46:31Z</time>
      </trkpt>
      <trkpt lat="43.69169" lon="1.36607">
        <ele>120</ele>
        <time>2022-03-18T20:46:34Z</time>
      </trkpt>
      <trkpt lat="43.69174" lon="1.36611">
        <ele>120</ele>
        <time>2022-03-18T20:46:35Z</time>
      </trkpt>
      <trkpt lat="43.69202" lon="1.36616">
        <ele>121</ele>
        <time>2022-03-18T20:46:42Z</time>
      </trkpt>
      <trkpt lat="43.69211" lon="1.36603">
        <ele>122</ele>
        <time>2022-03-18T20:46:45Z</time>
      </trkpt>
      <trkpt lat="43.69216" lon="1.366">
        <ele>122</ele>
        <time>2022-03-18T20:46:46Z</time>
      </trkpt>
      <trkpt lat="43.69223" lon="1.36618">
        <ele>122</ele>
        <time>2022-03-18T20:46:50Z</time>
      </trkpt>
      <trkpt lat="43.69236" lon="1.36614">
        <ele>122</ele>
        <time>2022-03-18T20:46:53Z</time>
      </trkpt>
      <trkpt lat="43.69279" lon="1.36626">
        <ele>122</ele>
        <time>2022-03-18T20:47:03Z</time>
      </trkpt>
      <trkpt lat="43.69331" lon="1.36648">
        <ele>121</ele>
        <time>2022-03-18T20:47:16Z</time>
      </trkpt>
      <trkpt lat="43.69391" lon="1.36665">
        <ele>121</ele>
        <time>2022-03-18T20:47:30Z</time>
      </trkpt>
      <trkpt lat="43.69396" lon="1.36669">
        <ele>121</ele>
        <time>2022-03-18T20:47:32Z</time>
      </trkpt>
      <trkpt lat="43.694" lon="1.36678">
        <ele>121</ele>
        <time>2022-03-18T20:47:33Z</time>
      </trkpt>
      <trkpt lat="43.69425" lon="1.36693">
        <ele>120</ele>
        <time>2022-03-18T20:47:40Z</time>
      </trkpt>
      <trkpt lat="43.69441" lon="1.36696">
        <ele>120</ele>
        <time>2022-03-18T20:47:43Z</time>
      </trkpt>
      <trkpt lat="43.69458" lon="1.36694">
        <ele>120</ele>
        <time>2022-03-18T20:47:47Z</time>
      </trkpt>
      <trkpt lat="43.69493" lon="1.36698">
        <ele>120</ele>
        <time>2022-03-18T20:47:56Z</time>
      </trkpt>
      <trkpt lat="43.69538" lon="1.36711">
        <ele>119</ele>
        <time>2022-03-18T20:48:06Z</time>
      </trkpt>
      <trkpt lat="43.69572" lon="1.36702">
        <ele>119</ele>
        <time>2022-03-18T20:48:14Z</time>
      </trkpt>
      <trkpt lat="43.69588" lon="1.36707">
        <ele>119</ele>
        <time>2022-03-18T20:48:18Z</time>
      </trkpt>
      <trkpt lat="43.696" lon="1.36716">
        <ele>119</ele>
        <time>2022-03-18T20:48:21Z</time>
      </trkpt>
      <trkpt lat="43.69612" lon="1.36721">
        <ele>119</ele>
        <time>2022-03-18T20:48:24Z</time>
      </trkpt>
      <trkpt lat="43.6964" lon="1.36736">
        <ele>119</ele>
        <time>2022-03-18T20:48:31Z</time>
      </trkpt>
      <trkpt lat="43.69698" lon="1.36751">
        <ele>119</ele>
        <time>2022-03-18T20:48:45Z</time>
      </trkpt>
      <trkpt lat="43.69721" lon="1.36751">
        <ele>119</ele>
        <time>2022-03-18T20:48:51Z</time>
      </trkpt>
      <trkpt lat="43.69755" lon="1.36763">
        <ele>119</ele>
        <time>2022-03-18T20:48:59Z</time>
      </trkpt>
      <trkpt lat="43.69777" lon="1.36767">
        <ele>119</ele>
        <time>2022-03-18T20:49:04Z</time>
      </trkpt>
      <trkpt lat="43.69808" lon="1.36779">
        <ele>119</ele>
        <time>2022-03-18T20:49:11Z</time>
      </trkpt>
      <trkpt lat="43.69873" lon="1.36797">
        <ele>118</ele>
        <time>2022-03-18T20:49:27Z</time>
      </trkpt>
      <trkpt lat="43.699" lon="1.36795">
        <ele>118</ele>
        <time>2022-03-18T20:49:33Z</time>
      </trkpt>
      <trkpt lat="43.69937" lon="1.36787">
        <ele>118</ele>
        <time>2022-03-18T20:49:42Z</time>
      </trkpt>
      <trkpt lat="43.69992" lon="1.36756">
        <ele>121</ele>
        <time>2022-03-18T20:49:56Z</time>
      </trkpt>
      <trkpt lat="43.7005" lon="1.36697">
        <ele>120</ele>
        <time>2022-03-18T20:50:13Z</time>
      </trkpt>
      <trkpt lat="43.70055" lon="1.36696">
        <ele>119</ele>
        <time>2022-03-18T20:50:14Z</time>
      </trkpt>
      <trkpt lat="43.70061" lon="1.36691">
        <ele>119</ele>
        <time>2022-03-18T20:50:15Z</time>
      </trkpt>
      <trkpt lat="43.70103" lon="1.36687">
        <ele>118</ele>
        <time>2022-03-18T20:50:25Z</time>
      </trkpt>
      <trkpt lat="43.70112" lon="1.36681">
        <ele>117</ele>
        <time>2022-03-18T20:50:28Z</time>
      </trkpt>
      <trkpt lat="43.70144" lon="1.36653">
        <ele>117</ele>
        <time>2022-03-18T20:50:36Z</time>
      </trkpt>
      <trkpt lat="43.70158" lon="1.36636">
        <ele>117</ele>
        <time>2022-03-18T20:50:41Z</time>
      </trkpt>
      <trkpt lat="43.70179" lon="1.36588">
        <ele>118</ele>
        <time>2022-03-18T20:50:50Z</time>
      </trkpt>
      <trkpt lat="43.70189" lon="1.36572">
        <ele>118</ele>
        <time>2022-03-18T20:50:54Z</time>
      </trkpt>
      <trkpt lat="43.70198" lon="1.36562">
        <ele>117</ele>
        <time>2022-03-18T20:50:57Z</time>
      </trkpt>
      <trkpt lat="43.70211" lon="1.3655">
        <ele>117</ele>
        <time>2022-03-18T20:51:00Z</time>
      </trkpt>
      <trkpt lat="43.70293" lon="1.36489">
        <ele>115</ele>
        <time>2022-03-18T20:51:22Z</time>
      </trkpt>
      <trkpt lat="43.70321" lon="1.36462">
        <ele>116</ele>
        <time>2022-03-18T20:51:30Z</time>
      </trkpt>
      <trkpt lat="43.70368" lon="1.36407">
        <ele>117</ele>
        <time>2022-03-18T20:51:44Z</time>
      </trkpt>
      <trkpt lat="43.70397" lon="1.36364">
        <ele>116</ele>
        <time>2022-03-18T20:51:54Z</time>
      </trkpt>
      <trkpt lat="43.7044" lon="1.36282">
        <ele>116</ele>
        <time>2022-03-18T20:52:11Z</time>
      </trkpt>
      <trkpt lat="43.70505" lon="1.36146">
        <ele>115</ele>
        <time>2022-03-18T20:52:39Z</time>
      </trkpt>
      <trkpt lat="43.70512" lon="1.36119">
        <ele>114</ele>
        <time>2022-03-18T20:52:44Z</time>
      </trkpt>
      <trkpt lat="43.70531" lon="1.36031">
        <ele>115</ele>
        <time>2022-03-18T20:52:59Z</time>
      </trkpt>
      <trkpt lat="43.70536" lon="1.36021">
        <ele>115</ele>
        <time>2022-03-18T20:53:01Z</time>
      </trkpt>
      <trkpt lat="43.70562" lon="1.35987">
        <ele>115</ele>
        <time>2022-03-18T20:53:10Z</time>
      </trkpt>
      <trkpt lat="43.70575" lon="1.35967">
        <ele>114</ele>
        <time>2022-03-18T20:53:14Z</time>
      </trkpt>
      <trkpt lat="43.70579" lon="1.35956">
        <ele>114</ele>
        <time>2022-03-18T20:53:16Z</time>
      </trkpt>
      <trkpt lat="43.70581" lon="1.35946">
        <ele>114</ele>
        <time>2022-03-18T20:53:18Z</time>
      </trkpt>
      <trkpt lat="43.70578" lon="1.3591">
        <ele>114</ele>
        <time>2022-03-18T20:53:24Z</time>
      </trkpt>
      <trkpt lat="43.70596" lon="1.35867">
        <ele>114</ele>
        <time>2022-03-18T20:53:33Z</time>
      </trkpt>
      <trkpt lat="43.70606" lon="1.35838">
        <ele>114</ele>
        <time>2022-03-18T20:53:38Z</time>
      </trkpt>
      <trkpt lat="43.70612" lon="1.35828">
        <ele>114</ele>
        <time>2022-03-18T20:53:40Z</time>
      </trkpt>
      <trkpt lat="43.70637" lon="1.35759">
        <ele>115</ele>
        <time>2022-03-18T20:53:53Z</time>
      </trkpt>
      <trkpt lat="43.70639" lon="1.35743">
        <ele>115</ele>
        <time>2022-03-18T20:53:56Z</time>
      </trkpt>
      <trkpt lat="43.70631" lon="1.35717">
        <ele>116</ele>
        <time>2022-03-18T20:54:01Z</time>
      </trkpt>
      <trkpt lat="43.70652" lon="1.35724">
        <ele>115</ele>
        <time>2022-03-18T20:54:06Z</time>
      </trkpt>
      <trkpt lat="43.70789" lon="1.35765">
        <ele>115</ele>
        <time>2022-03-18T20:54:38Z</time>
      </trkpt>
      <trkpt lat="43.70813" lon="1.35771">
        <ele>116</ele>
        <time>2022-03-18T20:54:44Z</time>
      </trkpt>
      <trkpt lat="43.70813" lon="1.35762">
        <ele>117</ele>
        <time>2022-03-18T20:54:46Z</time>
      </trkpt>
      <trkpt lat="43.70804" lon="1.35719">
        <ele>116</ele>
        <time>2022-03-18T20:54:53Z</time>
      </trkpt>
      <trkpt lat="43.70855" lon="1.35493">
        <ele>114</ele>
        <time>2022-03-18T20:55:33Z</time>
      </trkpt>
      <trkpt lat="43.70891" lon="1.3541">
        <ele>113</ele>
        <time>2022-03-18T20:55:50Z</time>
      </trkpt>
      <trkpt lat="43.70927" lon="1.35288">
        <ele>116</ele>
        <time>2022-03-18T20:56:12Z</time>
      </trkpt>
      <trkpt lat="43.70955" lon="1.3522">
        <ele>117</ele>
        <time>2022-03-18T20:56:25Z</time>
      </trkpt>
      <trkpt lat="43.70981" lon="1.35162">
        <ele>118</ele>
        <time>2022-03-18T20:56:36Z</time>
      </trkpt>
      <trkpt lat="43.71028" lon="1.35101">
        <ele>117</ele>
        <time>2022-03-18T20:56:52Z</time>
      </trkpt>
      <trkpt lat="43.71053" lon="1.35057">
        <ele>116</ele>
        <time>2022-03-18T20:57:01Z</time>
      </trkpt>
      <trkpt lat="43.71078" lon="1.34968">
        <ele>115</ele>
        <time>2022-03-18T20:57:17Z</time>
      </trkpt>
      <trkpt lat="43.71084" lon="1.34941">
        <ele>116</ele>
        <time>2022-03-18T20:57:22Z</time>
      </trkpt>
      <trkpt lat="43.71111" lon="1.34871">
        <ele>115</ele>
        <time>2022-03-18T20:57:35Z</time>
      </trkpt>
      <trkpt lat="43.71127" lon="1.34842">
        <ele>115</ele>
        <time>2022-03-18T20:57:41Z</time>
      </trkpt>
      <trkpt lat="43.71135" lon="1.34822">
        <ele>115</ele>
        <time>2022-03-18T20:57:45Z</time>
      </trkpt>
      <trkpt lat="43.71145" lon="1.34813">
        <ele>115</ele>
        <time>2022-03-18T20:57:48Z</time>
      </trkpt>
      <trkpt lat="43.71156" lon="1.34806">
        <ele>116</ele>
        <time>2022-03-18T20:57:51Z</time>
      </trkpt>
      <trkpt lat="43.71167" lon="1.34782">
        <ele>116</ele>
        <time>2022-03-18T20:57:56Z</time>
      </trkpt>
      <trkpt lat="43.71206" lon="1.34753">
        <ele>116</ele>
        <time>2022-03-18T20:58:06Z</time>
      </trkpt>
      <trkpt lat="43.71236" lon="1.34725">
        <ele>115</ele>
        <time>2022-03-18T20:58:14Z</time>
      </trkpt>
      <trkpt lat="43.71265" lon="1.34702">
        <ele>116</ele>
        <time>2022-03-18T20:58:22Z</time>
      </trkpt>
      <trkpt lat="43.71292" lon="1.34691">
        <ele>117</ele>
        <time>2022-03-18T20:58:29Z</time>
      </trkpt>
      <trkpt lat="43.71319" lon="1.34675">
        <ele>117</ele>
        <time>2022-03-18T20:58:36Z</time>
      </trkpt>
      <trkpt lat="43.71345" lon="1.34654">
        <ele>117</ele>
        <time>2022-03-18T20:58:43Z</time>
      </trkpt>
      <trkpt lat="43.71357" lon="1.34648">
        <ele>116</ele>
        <time>2022-03-18T20:58:46Z</time>
      </trkpt>
      <trkpt lat="43.71364" lon="1.34627">
        <ele>116</ele>
        <time>2022-03-18T20:58:50Z</time>
      </trkpt>
      <trkpt lat="43.71375" lon="1.34611">
        <ele>116</ele>
        <time>2022-03-18T20:58:53Z</time>
      </trkpt>
      <trkpt lat="43.71419" lon="1.34574">
        <ele>116</ele>
        <time>2022-03-18T20:59:05Z</time>
      </trkpt>
      <trkpt lat="43.71486" lon="1.34534">
        <ele>116</ele>
        <time>2022-03-18T20:59:22Z</time>
      </trkpt>
      <trkpt lat="43.71543" lon="1.34527">
        <ele>116</ele>
        <time>2022-03-18T20:59:36Z</time>
      </trkpt>
      <trkpt lat="43.71598" lon="1.34486">
        <ele>117</ele>
        <time>2022-03-18T20:59:50Z</time>
      </trkpt>
      <trkpt lat="43.71623" lon="1.34448">
        <ele>117</ele>
        <time>2022-03-18T20:59:59Z</time>
      </trkpt>
      <trkpt lat="43.71634" lon="1.34441">
        <ele>117</ele>
        <time>2022-03-18T21:00:02Z</time>
      </trkpt>
      <trkpt lat="43.71645" lon="1.34439">
        <ele>117</ele>
        <time>2022-03-18T21:00:04Z</time>
      </trkpt>
      <trkpt lat="43.717" lon="1.34443">
        <ele>115</ele>
        <time>2022-03-18T21:00:17Z</time>
      </trkpt>
      <trkpt lat="43.71742" lon="1.34424">
        <ele>114</ele>
        <time>2022-03-18T21:00:28Z</time>
      </trkpt>
      <trkpt lat="43.71751" lon="1.3441">
        <ele>114</ele>
        <time>2022-03-18T21:00:31Z</time>
      </trkpt>
      <trkpt lat="43.71767" lon="1.34397">
        <ele>114</ele>
        <time>2022-03-18T21:00:35Z</time>
      </trkpt>
      <trkpt lat="43.71775" lon="1.34378">
        <ele>114</ele>
        <time>2022-03-18T21:00:39Z</time>
      </trkpt>
      <trkpt lat="43.7178" lon="1.34337">
        <ele>115</ele>
        <time>2022-03-18T21:00:46Z</time>
      </trkpt>
      <trkpt lat="43.71784" lon="1.34332">
        <ele>115</ele>
        <time>2022-03-18T21:00:47Z</time>
      </trkpt>
      <trkpt lat="43.71803" lon="1.34331">
        <ele>114</ele>
        <time>2022-03-18T21:00:52Z</time>
      </trkpt>
      <trkpt lat="43.71826" lon="1.34336">
        <ele>113</ele>
        <time>2022-03-18T21:00:57Z</time>
      </trkpt>
      <trkpt lat="43.71977" lon="1.3442">
        <ele>114</ele>
        <time>2022-03-18T21:01:35Z</time>
      </trkpt>
      <trkpt lat="43.72037" lon="1.3445">
        <ele>113</ele>
        <time>2022-03-18T21:01:50Z</time>
      </trkpt>
      <trkpt lat="43.72078" lon="1.34467">
        <ele>112</ele>
        <time>2022-03-18T21:02:00Z</time>
      </trkpt>
      <trkpt lat="43.72099" lon="1.34481">
        <ele>112</ele>
        <time>2022-03-18T21:02:05Z</time>
      </trkpt>
      <trkpt lat="43.721" lon="1.34493">
        <ele>113</ele>
        <time>2022-03-18T21:02:07Z</time>
      </trkpt>
      <trkpt lat="43.72098" lon="1.34505">
        <ele>113</ele>
        <time>2022-03-18T21:02:09Z</time>
      </trkpt>
      <trkpt lat="43.7208" lon="1.3455">
        <ele>114</ele>
        <time>2022-03-18T21:02:18Z</time>
      </trkpt>
      <trkpt lat="43.72069" lon="1.34562">
        <ele>114</ele>
        <time>2022-03-18T21:02:21Z</time>
      </trkpt>
      <trkpt lat="43.72029" lon="1.34579">
        <ele>113</ele>
        <time>2022-03-18T21:02:31Z</time>
      </trkpt>
      <trkpt lat="43.71978" lon="1.34592">
        <ele>113</ele>
        <time>2022-03-18T21:02:43Z</time>
      </trkpt>
      <trkpt lat="43.71962" lon="1.34592">
        <ele>114</ele>
        <time>2022-03-18T21:02:47Z</time>
      </trkpt>
      <trkpt lat="43.71939" lon="1.34584">
        <ele>114</ele>
        <time>2022-03-18T21:02:53Z</time>
      </trkpt>
      <trkpt lat="43.71931" lon="1.34583">
        <ele>114</ele>
        <time>2022-03-18T21:02:54Z</time>
      </trkpt>
      <trkpt lat="43.71928" lon="1.34588">
        <ele>114</ele>
        <time>2022-03-18T21:02:56Z</time>
      </trkpt>
      <trkpt lat="43.71922" lon="1.34609">
        <ele>114</ele>
        <time>2022-03-18T21:02:59Z</time>
      </trkpt>
      <trkpt lat="43.71923" lon="1.3462">
        <ele>114</ele>
        <time>2022-03-18T21:03:01Z</time>
      </trkpt>
      <trkpt lat="43.71931" lon="1.34634">
        <ele>114</ele>
        <time>2022-03-18T21:03:04Z</time>
      </trkpt>
      <trkpt lat="43.71975" lon="1.3466">
        <ele>114</ele>
        <time>2022-03-18T21:03:15Z</time>
      </trkpt>
      <trkpt lat="43.7198" lon="1.3467">
        <ele>114</ele>
        <time>2022-03-18T21:03:17Z</time>
      </trkpt>
      <trkpt lat="43.71979" lon="1.34673">
        <ele>114</ele>
        <time>2022-03-18T21:03:18Z</time>
      </trkpt>
      <trkpt lat="43.71933" lon="1.34743">
        <ele>113</ele>
        <time>2022-03-18T21:03:34Z</time>
      </trkpt>
      <trkpt lat="43.71902" lon="1.34767">
        <ele>112</ele>
        <time>2022-03-18T21:03:42Z</time>
      </trkpt>
      <trkpt lat="43.7189" lon="1.34766">
        <ele>112</ele>
        <time>2022-03-18T21:03:45Z</time>
      </trkpt>
      <trkpt lat="43.7185" lon="1.3475">
        <ele>112</ele>
        <time>2022-03-18T21:03:55Z</time>
      </trkpt>
      <trkpt lat="43.71845" lon="1.34753">
        <ele>112</ele>
        <time>2022-03-18T21:03:56Z</time>
      </trkpt>
      <trkpt lat="43.71841" lon="1.34769">
        <ele>112</ele>
        <time>2022-03-18T21:03:59Z</time>
      </trkpt>
      <trkpt lat="43.71841" lon="1.34811">
        <ele>113</ele>
        <time>2022-03-18T21:04:06Z</time>
      </trkpt>
      <trkpt lat="43.71847" lon="1.34874">
        <ele>114</ele>
        <time>2022-03-18T21:04:17Z</time>
      </trkpt>
      <trkpt lat="43.71844" lon="1.34903">
        <ele>114</ele>
        <time>2022-03-18T21:04:22Z</time>
      </trkpt>
      <trkpt lat="43.71829" lon="1.34953">
        <ele>114</ele>
        <time>2022-03-18T21:04:31Z</time>
      </trkpt>
      <trkpt lat="43.71818" lon="1.34984">
        <ele>114</ele>
        <time>2022-03-18T21:04:37Z</time>
      </trkpt>
      <trkpt lat="43.7179" lon="1.35028">
        <ele>115</ele>
        <time>2022-03-18T21:04:47Z</time>
      </trkpt>
      <trkpt lat="43.71753" lon="1.3504">
        <ele>115</ele>
        <time>2022-03-18T21:04:55Z</time>
      </trkpt>
      <trkpt lat="43.71676" lon="1.3504">
        <ele>115</ele>
        <time>2022-03-18T21:05:13Z</time>
      </trkpt>
      <trkpt lat="43.71637" lon="1.35047">
        <ele>115</ele>
        <time>2022-03-18T21:05:23Z</time>
      </trkpt>
      <trkpt lat="43.71614" lon="1.35044">
        <ele>115</ele>
        <time>2022-03-18T21:05:28Z</time>
      </trkpt>
      <trkpt lat="43.71573" lon="1.3503">
        <ele>115</ele>
        <time>2022-03-18T21:05:38Z</time>
      </trkpt>
      <trkpt lat="43.71561" lon="1.35022">
        <ele>115</ele>
        <time>2022-03-18T21:05:41Z</time>
      </trkpt>
      <trkpt lat="43.7154" lon="1.35018">
        <ele>115</ele>
        <time>2022-03-18T21:05:46Z</time>
      </trkpt>
      <trkpt lat="43.71532" lon="1.35021">
        <ele>115</ele>
        <time>2022-03-18T21:05:48Z</time>
      </trkpt>
      <trkpt lat="43.71511" lon="1.35055">
        <ele>116</ele>
        <time>2022-03-18T21:05:55Z</time>
      </trkpt>
      <trkpt lat="43.71486" lon="1.35082">
        <ele>117</ele>
        <time>2022-03-18T21:06:03Z</time>
      </trkpt>
      <trkpt lat="43.71465" lon="1.35101">
        <ele>117</ele>
        <time>2022-03-18T21:06:09Z</time>
      </trkpt>
      <trkpt lat="43.71453" lon="1.35085">
        <ele>116</ele>
        <time>2022-03-18T21:06:13Z</time>
      </trkpt>
      <trkpt lat="43.71426" lon="1.35079">
        <ele>116</ele>
        <time>2022-03-18T21:06:19Z</time>
      </trkpt>
      <trkpt lat="43.71412" lon="1.35086">
        <ele>116</ele>
        <time>2022-03-18T21:06:22Z</time>
      </trkpt>
      <trkpt lat="43.71403" lon="1.35093">
        <ele>116</ele>
        <time>2022-03-18T21:06:25Z</time>
      </trkpt>
      <trkpt lat="43.71386" lon="1.35112">
        <ele>117</ele>
        <time>2022-03-18T21:06:30Z</time>
      </trkpt>
      <trkpt lat="43.71343" lon="1.35143">
        <ele>117</ele>
        <time>2022-03-18T21:06:41Z</time>
      </trkpt>
      <trkpt lat="43.71299" lon="1.3516">
        <ele>117</ele>
        <time>2022-03-18T21:06:52Z</time>
      </trkpt>
      <trkpt lat="43.71276" lon="1.35161">
        <ele>116</ele>
        <time>2022-03-18T21:06:57Z</time>
      </trkpt>
      <trkpt lat="43.71252" lon="1.3517">
        <ele>116</ele>
        <time>2022-03-18T21:07:03Z</time>
      </trkpt>
      <trkpt lat="43.71238" lon="1.35183">
        <ele>116</ele>
        <time>2022-03-18T21:07:07Z</time>
      </trkpt>
      <trkpt lat="43.71222" lon="1.35213">
        <ele>117</ele>
        <time>2022-03-18T21:07:13Z</time>
      </trkpt>
      <trkpt lat="43.71201" lon="1.35293">
        <ele>117</ele>
        <time>2022-03-18T21:07:28Z</time>
      </trkpt>
      <trkpt lat="43.71185" lon="1.35328">
        <ele>117</ele>
        <time>2022-03-18T21:07:35Z</time>
      </trkpt>
      <trkpt lat="43.71145" lon="1.35369">
        <ele>116</ele>
        <time>2022-03-18T21:07:46Z</time>
      </trkpt>
      <trkpt lat="43.71127" lon="1.35398">
        <ele>115</ele>
        <time>2022-03-18T21:07:53Z</time>
      </trkpt>
      <trkpt lat="43.71138" lon="1.3541">
        <ele>115</ele>
        <time>2022-03-18T21:07:56Z</time>
      </trkpt>
      <trkpt lat="43.71141" lon="1.35425">
        <ele>115</ele>
        <time>2022-03-18T21:07:59Z</time>
      </trkpt>
      <trkpt lat="43.7114" lon="1.35444">
        <ele>115</ele>
        <time>2022-03-18T21:08:02Z</time>
      </trkpt>
      <trkpt lat="43.71114" lon="1.35498">
        <ele>115</ele>
        <time>2022-03-18T21:08:13Z</time>
      </trkpt>
      <trkpt lat="43.711" lon="1.35526">
        <ele>115</ele>
        <time>2022-03-18T21:08:19Z</time>
      </trkpt>
      <trkpt lat="43.71085" lon="1.35565">
        <ele>114</ele>
        <time>2022-03-18T21:08:26Z</time>
      </trkpt>
      <trkpt lat="43.71074" lon="1.35615">
        <ele>114</ele>
        <time>2022-03-18T21:08:35Z</time>
      </trkpt>
      <trkpt lat="43.71062" lon="1.35641">
        <ele>115</ele>
        <time>2022-03-18T21:08:40Z</time>
      </trkpt>
      <trkpt lat="43.71055" lon="1.35647">
        <ele>115</ele>
        <time>2022-03-18T21:08:42Z</time>
      </trkpt>
      <trkpt lat="43.71038" lon="1.35671">
        <ele>116</ele>
        <time>2022-03-18T21:08:48Z</time>
      </trkpt>
      <trkpt lat="43.71001" lon="1.35774">
        <ele>117</ele>
        <time>2022-03-18T21:09:07Z</time>
      </trkpt>
      <trkpt lat="43.70985" lon="1.35838">
        <ele>116</ele>
        <time>2022-03-18T21:09:19Z</time>
      </trkpt>
      <trkpt lat="43.70975" lon="1.3589">
        <ele>115</ele>
        <time>2022-03-18T21:09:28Z</time>
      </trkpt>
      <trkpt lat="43.70971" lon="1.36009">
        <ele>116</ele>
        <time>2022-03-18T21:09:48Z</time>
      </trkpt>
      <trkpt lat="43.7096" lon="1.36005">
        <ele>116</ele>
        <time>2022-03-18T21:09:50Z</time>
      </trkpt>
      <trkpt lat="43.70955" lon="1.36005">
        <ele>116</ele>
        <time>2022-03-18T21:09:52Z</time>
      </trkpt>
      <trkpt lat="43.7095" lon="1.36009">
        <ele>116</ele>
        <time>2022-03-18T21:09:53Z</time>
      </trkpt>
      <trkpt lat="43.70928" lon="1.36082">
        <ele>117</ele>
        <time>2022-03-18T21:10:06Z</time>
      </trkpt>
      <trkpt lat="43.70914" lon="1.36134">
        <ele>116</ele>
        <time>2022-03-18T21:10:16Z</time>
      </trkpt>
      <trkpt lat="43.70895" lon="1.36195">
        <ele>117</ele>
        <time>2022-03-18T21:10:27Z</time>
      </trkpt>
      <trkpt lat="43.70882" lon="1.36224">
        <ele>118</ele>
        <time>2022-03-18T21:10:33Z</time>
      </trkpt>
      <trkpt lat="43.7087" lon="1.36244">
        <ele>118</ele>
        <time>2022-03-18T21:10:37Z</time>
      </trkpt>
      <trkpt lat="43.70857" lon="1.36233">
        <ele>118</ele>
        <time>2022-03-18T21:10:41Z</time>
      </trkpt>
      <trkpt lat="43.70827" lon="1.36212">
        <ele>118</ele>
        <time>2022-03-18T21:10:48Z</time>
      </trkpt>
      <trkpt lat="43.70823" lon="1.36198">
        <ele>118</ele>
        <time>2022-03-18T21:10:51Z</time>
      </trkpt>
      <trkpt lat="43.70816" lon="1.3616">
        <ele>117</ele>
        <time>2022-03-18T21:10:58Z</time>
      </trkpt>
      <trkpt lat="43.70793" lon="1.36152">
        <ele>118</ele>
        <time>2022-03-18T21:11:03Z</time>
      </trkpt>
      <trkpt lat="43.70773" lon="1.3615">
        <ele>118</ele>
        <time>2022-03-18T21:11:08Z</time>
      </trkpt>
      <trkpt lat="43.70753" lon="1.36156">
        <ele>119</ele>
        <time>2022-03-18T21:11:13Z</time>
      </trkpt>
      <trkpt lat="43.7073" lon="1.36167">
        <ele>118</ele>
        <time>2022-03-18T21:11:18Z</time>
      </trkpt>
      <trkpt lat="43.70723" lon="1.36169">
        <ele>117</ele>
        <time>2022-03-18T21:11:20Z</time>
      </trkpt>
      <trkpt lat="43.70716" lon="1.36167">
        <ele>117</ele>
        <time>2022-03-18T21:11:22Z</time>
      </trkpt>
      <trkpt lat="43.70711" lon="1.36175">
        <ele>116</ele>
        <time>2022-03-18T21:11:23Z</time>
      </trkpt>
      <trkpt lat="43.70709" lon="1.36184">
        <ele>116</ele>
        <time>2022-03-18T21:11:25Z</time>
      </trkpt>
      <trkpt lat="43.70699" lon="1.36197">
        <ele>115</ele>
        <time>2022-03-18T21:11:28Z</time>
      </trkpt>
      <trkpt lat="43.70702" lon="1.36274">
        <ele>117</ele>
        <time>2022-03-18T21:11:41Z</time>
      </trkpt>
      <trkpt lat="43.70705" lon="1.36292">
        <ele>119</ele>
        <time>2022-03-18T21:11:44Z</time>
      </trkpt>
      <trkpt lat="43.7071" lon="1.36304">
        <ele>120</ele>
        <time>2022-03-18T21:11:47Z</time>
      </trkpt>
      <trkpt lat="43.70711" lon="1.36316">
        <ele>121</ele>
        <time>2022-03-18T21:11:49Z</time>
      </trkpt>
      <trkpt lat="43.70704" lon="1.36318">
        <ele>120</ele>
        <time>2022-03-18T21:11:50Z</time>
      </trkpt>
      <trkpt lat="43.70705" lon="1.36333">
        <ele>121</ele>
        <time>2022-03-18T21:11:53Z</time>
      </trkpt>
      <trkpt lat="43.70709" lon="1.36342">
        <ele>122</ele>
        <time>2022-03-18T21:11:55Z</time>
      </trkpt>
      <trkpt lat="43.70707" lon="1.3636">
        <ele>122</ele>
        <time>2022-03-18T21:11:58Z</time>
      </trkpt>
      <trkpt lat="43.70701" lon="1.36355">
        <ele>122</ele>
        <time>2022-03-18T21:11:59Z</time>
      </trkpt>
      <trkpt lat="43.707" lon="1.3637">
        <ele>122</ele>
        <time>2022-03-18T21:12:02Z</time>
      </trkpt>
      <trkpt lat="43.70663" lon="1.3639">
        <ele>121</ele>
        <time>2022-03-18T21:12:11Z</time>
      </trkpt>
      <trkpt lat="43.70646" lon="1.36411">
        <ele>120</ele>
        <time>2022-03-18T21:12:17Z</time>
      </trkpt>
      <trkpt lat="43.70646" lon="1.36426">
        <ele>120</ele>
        <time>2022-03-18T21:12:19Z</time>
      </trkpt>
      <trkpt lat="43.70628" lon="1.36469">
        <ele>118</ele>
        <time>2022-03-18T21:12:27Z</time>
      </trkpt>
      <trkpt lat="43.70626" lon="1.36498">
        <ele>119</ele>
        <time>2022-03-18T21:12:32Z</time>
      </trkpt>
      <trkpt lat="43.70601" lon="1.36546">
        <ele>119</ele>
        <time>2022-03-18T21:12:42Z</time>
      </trkpt>
      <trkpt lat="43.70586" lon="1.36545">
        <ele>118</ele>
        <time>2022-03-18T21:12:46Z</time>
      </trkpt>
      <trkpt lat="43.70571" lon="1.36558">
        <ele>118</ele>
        <time>2022-03-18T21:12:50Z</time>
      </trkpt>
      <trkpt lat="43.7053" lon="1.36609">
        <ele>117</ele>
        <time>2022-03-18T21:13:03Z</time>
      </trkpt>
      <trkpt lat="43.70484" lon="1.36652">
        <ele>118</ele>
        <time>2022-03-18T21:13:16Z</time>
      </trkpt>
      <trkpt lat="43.70472" lon="1.36667">
        <ele>118</ele>
        <time>2022-03-18T21:13:20Z</time>
      </trkpt>
      <trkpt lat="43.7042" lon="1.36701">
        <ele>119</ele>
        <time>2022-03-18T21:13:33Z</time>
      </trkpt>
      <trkpt lat="43.7041" lon="1.36715">
        <ele>119</ele>
        <time>2022-03-18T21:13:36Z</time>
      </trkpt>
      <trkpt lat="43.70409" lon="1.36729">
        <ele>120</ele>
        <time>2022-03-18T21:13:39Z</time>
      </trkpt>
      <trkpt lat="43.70405" lon="1.3674">
        <ele>120</ele>
        <time>2022-03-18T21:13:41Z</time>
      </trkpt>
      <trkpt lat="43.70396" lon="1.3675">
        <ele>121</ele>
        <time>2022-03-18T21:13:44Z</time>
      </trkpt>
      <trkpt lat="43.7039" lon="1.36762">
        <ele>121</ele>
        <time>2022-03-18T21:13:46Z</time>
      </trkpt>
      <trkpt lat="43.7038" lon="1.36756">
        <ele>120</ele>
        <time>2022-03-18T21:13:49Z</time>
      </trkpt>
      <trkpt lat="43.7037" lon="1.36754">
        <ele>120</ele>
        <time>2022-03-18T21:13:51Z</time>
      </trkpt>
      <trkpt lat="43.70344" lon="1.3676">
        <ele>119</ele>
        <time>2022-03-18T21:13:57Z</time>
      </trkpt>
      <trkpt lat="43.70335" lon="1.36765">
        <ele>119</ele>
        <time>2022-03-18T21:13:59Z</time>
      </trkpt>
      <trkpt lat="43.70321" lon="1.36777">
        <ele>119</ele>
        <time>2022-03-18T21:14:03Z</time>
      </trkpt>
      <trkpt lat="43.70311" lon="1.36777">
        <ele>118</ele>
        <time>2022-03-18T21:14:05Z</time>
      </trkpt>
      <trkpt lat="43.70303" lon="1.36781">
        <ele>118</ele>
        <time>2022-03-18T21:14:07Z</time>
      </trkpt>
      <trkpt lat="43.70289" lon="1.36782">
        <ele>117</ele>
        <time>2022-03-18T21:14:11Z</time>
      </trkpt>
      <trkpt lat="43.70258" lon="1.36806">
        <ele>118</ele>
        <time>2022-03-18T21:14:19Z</time>
      </trkpt>
      <trkpt lat="43.70239" lon="1.36815">
        <ele>118</ele>
        <time>2022-03-18T21:14:24Z</time>
      </trkpt>
      <trkpt lat="43.70227" lon="1.36823">
        <ele>118</ele>
        <time>2022-03-18T21:14:27Z</time>
      </trkpt>
      <trkpt lat="43.70185" lon="1.36848">
        <ele>117</ele>
        <time>2022-03-18T21:14:38Z</time>
      </trkpt>
      <trkpt lat="43.70181" lon="1.36848">
        <ele>116</ele>
        <time>2022-03-18T21:14:38Z</time>
      </trkpt>
      <trkpt lat="43.70176" lon="1.36845">
        <ele>116</ele>
        <time>2022-03-18T21:14:40Z</time>
      </trkpt>
      <trkpt lat="43.70165" lon="1.36847">
        <ele>116</ele>
        <time>2022-03-18T21:14:42Z</time>
      </trkpt>
      <trkpt lat="43.70156" lon="1.36852">
        <ele>116</ele>
        <time>2022-03-18T21:14:45Z</time>
      </trkpt>
      <trkpt lat="43.70149" lon="1.36853">
        <ele>116</ele>
        <time>2022-03-18T21:14:46Z</time>
      </trkpt>
      <trkpt lat="43.70146" lon="1.36859">
        <ele>116</ele>
        <time>2022-03-18T21:14:47Z</time>
      </trkpt>
      <trkpt lat="43.70136" lon="1.36861">
        <ele>116</ele>
        <time>2022-03-18T21:14:50Z</time>
      </trkpt>
      <trkpt lat="43.70126" lon="1.36876">
        <ele>117</ele>
        <time>2022-03-18T21:14:53Z</time>
      </trkpt>
      <trkpt lat="43.70124" lon="1.36874">
        <ele>116</ele>
        <time>2022-03-18T21:14:54Z</time>
      </trkpt>
      <trkpt lat="43.70114" lon="1.36881">
        <ele>117</ele>
        <time>2022-03-18T21:14:56Z</time>
      </trkpt>
      <trkpt lat="43.70112" lon="1.36891">
        <ele>117</ele>
        <time>2022-03-18T21:14:58Z</time>
      </trkpt>
      <trkpt lat="43.70113" lon="1.369">
        <ele>118</ele>
        <time>2022-03-18T21:15:00Z</time>
      </trkpt>
      <trkpt lat="43.70121" lon="1.36918">
        <ele>119</ele>
        <time>2022-03-18T21:15:03Z</time>
      </trkpt>
      <trkpt lat="43.70123" lon="1.36926">
        <ele>119</ele>
        <time>2022-03-18T21:15:05Z</time>
      </trkpt>
      <trkpt lat="43.70122" lon="1.36953">
        <ele>120</ele>
        <time>2022-03-18T21:15:09Z</time>
      </trkpt>
      <trkpt lat="43.70115" lon="1.36968">
        <ele>120</ele>
        <time>2022-03-18T21:15:12Z</time>
      </trkpt>
      <trkpt lat="43.701" lon="1.36984">
        <ele>120</ele>
        <time>2022-03-18T21:15:17Z</time>
      </trkpt>
      <trkpt lat="43.70099" lon="1.36988">
        <ele>120</ele>
        <time>2022-03-18T21:15:17Z</time>
      </trkpt>
      <trkpt lat="43.7007" lon="1.37013">
        <ele>120</ele>
        <time>2022-03-18T21:15:25Z</time>
      </trkpt>
      <trkpt lat="43.70034" lon="1.37048">
        <ele>121</ele>
        <time>2022-03-18T21:15:36Z</time>
      </trkpt>
      <trkpt lat="43.69954" lon="1.37145">
        <ele>120</ele>
        <time>2022-03-18T21:16:01Z</time>
      </trkpt>
      <trkpt lat="43.69949" lon="1.37148">
        <ele>120</ele>
        <time>2022-03-18T21:16:02Z</time>
      </trkpt>
      <trkpt lat="43.69931" lon="1.37169">
        <ele>119</ele>
        <time>2022-03-18T21:16:07Z</time>
      </trkpt>
      <trkpt lat="43.6993" lon="1.37176">
        <ele>120</ele>
        <time>2022-03-18T21:16:09Z</time>
      </trkpt>
      <trkpt lat="43.69927" lon="1.37179">
        <ele>120</ele>
        <time>2022-03-18T21:16:09Z</time>
      </trkpt>
      <trkpt lat="43.69923" lon="1.37191">
        <ele>120</ele>
        <time>2022-03-18T21:16:12Z</time>
      </trkpt>
      <trkpt lat="43.69921" lon="1.37188">
        <ele>120</ele>
        <time>2022-03-18T21:16:12Z</time>
      </trkpt>
      <trkpt lat="43.69907" lon="1.37182">
        <ele>119</ele>
        <time>2022-03-18T21:16:16Z</time>
      </trkpt>
      <trkpt lat="43.69821" lon="1.37166">
        <ele>120</ele>
        <time>2022-03-18T21:16:36Z</time>
      </trkpt>
      <trkpt lat="43.69799" lon="1.37159">
        <ele>120</ele>
        <time>2022-03-18T21:16:41Z</time>
      </trkpt>
      <trkpt lat="43.69784" lon="1.37151">
        <ele>120</ele>
        <time>2022-03-18T21:16:45Z</time>
      </trkpt>
      <trkpt lat="43.69766" lon="1.37137">
        <ele>120</ele>
        <time>2022-03-18T21:16:50Z</time>
      </trkpt>
      <trkpt lat="43.69758" lon="1.37135">
        <ele>120</ele>
        <time>2022-03-18T21:16:52Z</time>
      </trkpt>
      <trkpt lat="43.69743" lon="1.37138">
        <ele>120</ele>
        <time>2022-03-18T21:16:55Z</time>
      </trkpt>
      <trkpt lat="43.69733" lon="1.37115">
        <ele>120</ele>
        <time>2022-03-18T21:17:00Z</time>
      </trkpt>
      <trkpt lat="43.6973" lon="1.37097">
        <ele>120</ele>
        <time>2022-03-18T21:17:03Z</time>
      </trkpt>
      <trkpt lat="43.69721" lon="1.37066">
        <ele>119</ele>
        <time>2022-03-18T21:17:09Z</time>
      </trkpt>
      <trkpt lat="43.69716" lon="1.37018">
        <ele>118</ele>
        <time>2022-03-18T21:17:17Z</time>
      </trkpt>
      <trkpt lat="43.69716" lon="1.36998">
        <ele>118</ele>
        <time>2022-03-18T21:17:20Z</time>
      </trkpt>
      <trkpt lat="43.69714" lon="1.36985">
        <ele>117</ele>
        <time>2022-03-18T21:17:22Z</time>
      </trkpt>
      <trkpt lat="43.69704" lon="1.36979">
        <ele>117</ele>
        <time>2022-03-18T21:17:25Z</time>
      </trkpt>
      <trkpt lat="43.69686" lon="1.36973">
        <ele>117</ele>
        <time>2022-03-18T21:17:29Z</time>
      </trkpt>
      <trkpt lat="43.69654" lon="1.36968">
        <ele>118</ele>
        <time>2022-03-18T21:17:37Z</time>
      </trkpt>
      <trkpt lat="43.69638" lon="1.36967">
        <ele>118</ele>
        <time>2022-03-18T21:17:41Z</time>
      </trkpt>
      <trkpt lat="43.69626" lon="1.3696">
        <ele>118</ele>
        <time>2022-03-18T21:17:44Z</time>
      </trkpt>
      <trkpt lat="43.69619" lon="1.36962">
        <ele>118</ele>
        <time>2022-03-18T21:17:45Z</time>
      </trkpt>
      <trkpt lat="43.69599" lon="1.36962">
        <ele>118</ele>
        <time>2022-03-18T21:17:50Z</time>
      </trkpt>
      <trkpt lat="43.69595" lon="1.3696">
        <ele>118</ele>
        <time>2022-03-18T21:17:51Z</time>
      </trkpt>
      <trkpt lat="43.69578" lon="1.36942">
        <ele>118</ele>
        <time>2022-03-18T21:17:56Z</time>
      </trkpt>
      <trkpt lat="43.69564" lon="1.36934">
        <ele>118</ele>
        <time>2022-03-18T21:17:59Z</time>
      </trkpt>
      <trkpt lat="43.69551" lon="1.36933">
        <ele>118</ele>
        <time>2022-03-18T21:18:02Z</time>
      </trkpt>
      <trkpt lat="43.69543" lon="1.36938">
        <ele>118</ele>
        <time>2022-03-18T21:18:05Z</time>
      </trkpt>
      <trkpt lat="43.69532" lon="1.36941">
        <ele>118</ele>
        <time>2022-03-18T21:18:07Z</time>
      </trkpt>
      <trkpt lat="43.69497" lon="1.36919">
        <ele>117</ele>
        <time>2022-03-18T21:18:16Z</time>
      </trkpt>
      <trkpt lat="43.69431" lon="1.36911">
        <ele>118</ele>
        <time>2022-03-18T21:18:32Z</time>
      </trkpt>
      <trkpt lat="43.69392" lon="1.36903">
        <ele>118</ele>
        <time>2022-03-18T21:18:41Z</time>
      </trkpt>
      <trkpt lat="43.69372" lon="1.36904">
        <ele>118</ele>
        <time>2022-03-18T21:18:45Z</time>
      </trkpt>
      <trkpt lat="43.69281" lon="1.36892">
        <ele>117</ele>
        <time>2022-03-18T21:19:07Z</time>
      </trkpt>
      <trkpt lat="43.69195" lon="1.36883">
        <ele>117</ele>
        <time>2022-03-18T21:19:27Z</time>
      </trkpt>
      <trkpt lat="43.69151" lon="1.36881">
        <ele>118</ele>
        <time>2022-03-18T21:19:37Z</time>
      </trkpt>
      <trkpt lat="43.69168" lon="1.36974">
        <ele>117</ele>
        <time>2022-03-18T21:19:53Z</time>
      </trkpt>
      <trkpt lat="43.69174" lon="1.37018">
        <ele>116</ele>
        <time>2022-03-18T21:20:01Z</time>
      </trkpt>
      <trkpt lat="43.69183" lon="1.37054">
        <ele>117</ele>
        <time>2022-03-18T21:20:07Z</time>
      </trkpt>
      <trkpt lat="43.69182" lon="1.37065">
        <ele>117</ele>
        <time>2022-03-18T21:20:09Z</time>
      </trkpt>
      <trkpt lat="43.69178" lon="1.37075">
        <ele>117</ele>
        <time>2022-03-18T21:20:11Z</time>
      </trkpt>
      <trkpt lat="43.69168" lon="1.37085">
        <ele>117</ele>
        <time>2022-03-18T21:20:14Z</time>
      </trkpt>
      <trkpt lat="43.6905" lon="1.37123">
        <ele>117</ele>
        <time>2022-03-18T21:20:42Z</time>
      </trkpt>
      <trkpt lat="43.69023" lon="1.37129">
        <ele>117</ele>
        <time>2022-03-18T21:20:49Z</time>
      </trkpt>
      <trkpt lat="43.68989" lon="1.37144">
        <ele>117</ele>
        <time>2022-03-18T21:20:57Z</time>
      </trkpt>
      <trkpt lat="43.6892" lon="1.37169">
        <ele>118</ele>
        <time>2022-03-18T21:21:14Z</time>
      </trkpt>
      <trkpt lat="43.68894" lon="1.37174">
        <ele>117</ele>
        <time>2022-03-18T21:21:20Z</time>
      </trkpt>
      <trkpt lat="43.68909" lon="1.3701">
        <ele>117</ele>
        <time>2022-03-18T21:21:48Z</time>
      </trkpt>
      <trkpt lat="43.68919" lon="1.36941">
        <ele>118</ele>
        <time>2022-03-18T21:22:00Z</time>
      </trkpt>
      <trkpt lat="43.6892" lon="1.36926">
        <ele>119</ele>
        <time>2022-03-18T21:22:02Z</time>
      </trkpt>
      <trkpt lat="43.68918" lon="1.36917">
        <ele>119</ele>
        <time>2022-03-18T21:22:04Z</time>
      </trkpt>
      <trkpt lat="43.68915" lon="1.36913">
        <ele>119</ele>
        <time>2022-03-18T21:22:05Z</time>
      </trkpt>
      <trkpt lat="43.68909" lon="1.36912">
        <ele>119</ele>
        <time>2022-03-18T21:22:06Z</time>
      </trkpt>
      <trkpt lat="43.68901" lon="1.36917">
        <ele>119</ele>
        <time>2022-03-18T21:22:08Z</time>
      </trkpt>
      <trkpt lat="43.68897" lon="1.36925">
        <ele>119</ele>
        <time>2022-03-18T21:22:10Z</time>
      </trkpt>
      <trkpt lat="43.68901" lon="1.36938">
        <ele>119</ele>
        <time>2022-03-18T21:22:12Z</time>
      </trkpt>
      <trkpt lat="43.68895" lon="1.37001">
        <ele>117</ele>
        <time>2022-03-18T21:22:23Z</time>
      </trkpt>
      <trkpt lat="43.68897" lon="1.37038">
        <ele>117</ele>
        <time>2022-03-18T21:22:29Z</time>
      </trkpt>
      <trkpt lat="43.68883" lon="1.37191">
        <ele>117</ele>
        <time>2022-03-18T21:22:55Z</time>
      </trkpt>
      <trkpt lat="43.68871" lon="1.37344">
        <ele>117</ele>
        <time>2022-03-18T21:23:21Z</time>
      </trkpt>
      <trkpt lat="43.68865" lon="1.3738">
        <ele>118</ele>
        <time>2022-03-18T21:23:28Z</time>
      </trkpt>
      <trkpt lat="43.68856" lon="1.37388">
        <ele>118</ele>
        <time>2022-03-18T21:23:30Z</time>
      </trkpt>
      <trkpt lat="43.68834" lon="1.37387">
        <ele>119</ele>
        <time>2022-03-18T21:23:35Z</time>
      </trkpt>
      <trkpt lat="43.68686" lon="1.37363">
        <ele>116</ele>
        <time>2022-03-18T21:24:10Z</time>
      </trkpt>
      <trkpt lat="43.68616" lon="1.37349">
        <ele>116</ele>
        <time>2022-03-18T21:24:27Z</time>
      </trkpt>
      <trkpt lat="43.68588" lon="1.37346">
        <ele>116</ele>
        <time>2022-03-18T21:24:33Z</time>
      </trkpt>
      <trkpt lat="43.68577" lon="1.37338">
        <ele>116</ele>
        <time>2022-03-18T21:24:36Z</time>
      </trkpt>
      <trkpt lat="43.68559" lon="1.3731">
        <ele>116</ele>
        <time>2022-03-18T21:24:42Z</time>
      </trkpt>
      <trkpt lat="43.68527" lon="1.37288">
        <ele>116</ele>
        <time>2022-03-18T21:24:51Z</time>
      </trkpt>
      <trkpt lat="43.68509" lon="1.37282">
        <ele>116</ele>
        <time>2022-03-18T21:24:55Z</time>
      </trkpt>
      <trkpt lat="43.68425" lon="1.37293">
        <ele>116</ele>
        <time>2022-03-18T21:25:15Z</time>
      </trkpt>
      <trkpt lat="43.68418" lon="1.37291">
        <ele>116</ele>
        <time>2022-03-18T21:25:16Z</time>
      </trkpt>
      <trkpt lat="43.68411" lon="1.37287">
        <ele>117</ele>
        <time>2022-03-18T21:25:18Z</time>
      </trkpt>
      <trkpt lat="43.68407" lon="1.37269">
        <ele>116</ele>
        <time>2022-03-18T21:25:21Z</time>
      </trkpt>
      <trkpt lat="43.68389" lon="1.37223">
        <ele>117</ele>
        <time>2022-03-18T21:25:30Z</time>
      </trkpt>
      <trkpt lat="43.6838" lon="1.37194">
        <ele>117</ele>
        <time>2022-03-18T21:25:35Z</time>
      </trkpt>
      <trkpt lat="43.68369" lon="1.37136">
        <ele>119</ele>
        <time>2022-03-18T21:25:46Z</time>
      </trkpt>
      <trkpt lat="43.68362" lon="1.37121">
        <ele>119</ele>
        <time>2022-03-18T21:25:49Z</time>
      </trkpt>
      <trkpt lat="43.68354" lon="1.37113">
        <ele>120</ele>
        <time>2022-03-18T21:25:51Z</time>
      </trkpt>
      <trkpt lat="43.68339" lon="1.37078">
        <ele>121</ele>
        <time>2022-03-18T21:25:58Z</time>
      </trkpt>
      <trkpt lat="43.68334" lon="1.37061">
        <ele>120</ele>
        <time>2022-03-18T21:26:01Z</time>
      </trkpt>
      <trkpt lat="43.68333" lon="1.37051">
        <ele>120</ele>
        <time>2022-03-18T21:26:03Z</time>
      </trkpt>
      <trkpt lat="43.68337" lon="1.37022">
        <ele>119</ele>
        <time>2022-03-18T21:26:08Z</time>
      </trkpt>
      <trkpt lat="43.68335" lon="1.37013">
        <ele>118</ele>
        <time>2022-03-18T21:26:09Z</time>
      </trkpt>
      <trkpt lat="43.68326" lon="1.37017">
        <ele>119</ele>
        <time>2022-03-18T21:26:11Z</time>
      </trkpt>
      <trkpt lat="43.68307" lon="1.37027">
        <ele>119</ele>
        <time>2022-03-18T21:26:16Z</time>
      </trkpt>
      <trkpt lat="43.68293" lon="1.3704">
        <ele>119</ele>
        <time>2022-03-18T21:26:20Z</time>
      </trkpt>
      <trkpt lat="43.68283" lon="1.37042">
        <ele>119</ele>
        <time>2022-03-18T21:26:22Z</time>
      </trkpt>
      <trkpt lat="43.68265" lon="1.37049">
        <ele>119</ele>
        <time>2022-03-18T21:26:27Z</time>
      </trkpt>
      <trkpt lat="43.68247" lon="1.37063">
        <ele>120</ele>
        <time>2022-03-18T21:26:32Z</time>
      </trkpt>
      <trkpt lat="43.68204" lon="1.371">
        <ele>120</ele>
        <time>2022-03-18T21:26:43Z</time>
      </trkpt>
      <trkpt lat="43.68181" lon="1.37125">
        <ele>121</ele>
        <time>2022-03-18T21:26:50Z</time>
      </trkpt>
      <trkpt lat="43.6815" lon="1.37168">
        <ele>122</ele>
        <time>2022-03-18T21:27:01Z</time>
      </trkpt>
      <trkpt lat="43.68111" lon="1.37212">
        <ele>123</ele>
        <time>2022-03-18T21:27:12Z</time>
      </trkpt>
      <trkpt lat="43.68065" lon="1.37279">
        <ele>124</ele>
        <time>2022-03-18T21:27:28Z</time>
      </trkpt>
      <trkpt lat="43.67992" lon="1.37412">
        <ele>126</ele>
        <time>2022-03-18T21:27:56Z</time>
      </trkpt>
      <trkpt lat="43.67967" lon="1.37455">
        <ele>126</ele>
        <time>2022-03-18T21:28:05Z</time>
      </trkpt>
      <trkpt lat="43.67923" lon="1.37512">
        <ele>126</ele>
        <time>2022-03-18T21:28:20Z</time>
      </trkpt>
      <trkpt lat="43.67911" lon="1.3754">
        <ele>124</ele>
        <time>2022-03-18T21:28:25Z</time>
      </trkpt>
      <trkpt lat="43.67907" lon="1.37538">
        <ele>125</ele>
        <time>2022-03-18T21:28:26Z</time>
      </trkpt>
      <trkpt lat="43.679" lon="1.37543">
        <ele>124</ele>
        <time>2022-03-18T21:28:28Z</time>
      </trkpt>
      <trkpt lat="43.67837" lon="1.37609">
        <ele>123</ele>
        <time>2022-03-18T21:28:46Z</time>
      </trkpt>
      <trkpt lat="43.67739" lon="1.37692">
        <ele>123</ele>
        <time>2022-03-18T21:29:13Z</time>
      </trkpt>
      <trkpt lat="43.67721" lon="1.37715">
        <ele>123</ele>
        <time>2022-03-18T21:29:19Z</time>
      </trkpt>
      <trkpt lat="43.6769" lon="1.37784">
        <ele>123</ele>
        <time>2022-03-18T21:29:33Z</time>
      </trkpt>
      <trkpt lat="43.67671" lon="1.37815">
        <ele>123</ele>
        <time>2022-03-18T21:29:39Z</time>
      </trkpt>
      <trkpt lat="43.67634" lon="1.37838">
        <ele>123</ele>
        <time>2022-03-18T21:29:49Z</time>
      </trkpt>
      <trkpt lat="43.67625" lon="1.37847">
        <ele>123</ele>
        <time>2022-03-18T21:29:52Z</time>
      </trkpt>
      <trkpt lat="43.67616" lon="1.3786">
        <ele>123</ele>
        <time>2022-03-18T21:29:55Z</time>
      </trkpt>
      <trkpt lat="43.67573" lon="1.37958">
        <ele>121</ele>
        <time>2022-03-18T21:30:14Z</time>
      </trkpt>
      <trkpt lat="43.67548" lon="1.38022">
        <ele>121</ele>
        <time>2022-03-18T21:30:26Z</time>
      </trkpt>
      <trkpt lat="43.67536" lon="1.38077">
        <ele>121</ele>
        <time>2022-03-18T21:30:36Z</time>
      </trkpt>
      <trkpt lat="43.67524" lon="1.38157">
        <ele>122</ele>
        <time>2022-03-18T21:30:50Z</time>
      </trkpt>
      <trkpt lat="43.6752" lon="1.38169">
        <ele>122</ele>
        <time>2022-03-18T21:30:52Z</time>
      </trkpt>
      <trkpt lat="43.67493" lon="1.38226">
        <ele>122</ele>
        <time>2022-03-18T21:31:03Z</time>
      </trkpt>
      <trkpt lat="43.67468" lon="1.38319">
        <ele>121</ele>
        <time>2022-03-18T21:31:20Z</time>
      </trkpt>
      <trkpt lat="43.67451" lon="1.38333">
        <ele>121</ele>
        <time>2022-03-18T21:31:25Z</time>
      </trkpt>
      <trkpt lat="43.6744" lon="1.38337">
        <ele>121</ele>
        <time>2022-03-18T21:31:27Z</time>
      </trkpt>
      <trkpt lat="43.67407" lon="1.38334">
        <ele>122</ele>
        <time>2022-03-18T21:31:35Z</time>
      </trkpt>
      <trkpt lat="43.67317" lon="1.38322">
        <ele>124</ele>
        <time>2022-03-18T21:31:56Z</time>
      </trkpt>
      <trkpt lat="43.67266" lon="1.38319">
        <ele>124</ele>
        <time>2022-03-18T21:32:08Z</time>
      </trkpt>
      <trkpt lat="43.67051" lon="1.38295">
        <ele>124</ele>
        <time>2022-03-18T21:32:59Z</time>
      </trkpt>
      <trkpt lat="43.67032" lon="1.383">
        <ele>124</ele>
        <time>2022-03-18T21:33:03Z</time>
      </trkpt>
      <trkpt lat="43.67022" lon="1.38312">
        <ele>124</ele>
        <time>2022-03-18T21:33:06Z</time>
      </trkpt>
      <trkpt lat="43.67016" lon="1.38322">
        <ele>124</ele>
        <time>2022-03-18T21:33:08Z</time>
      </trkpt>
      <trkpt lat="43.66999" lon="1.38325">
        <ele>124</ele>
        <time>2022-03-18T21:33:12Z</time>
      </trkpt>
      <trkpt lat="43.66919" lon="1.38373">
        <ele>124</ele>
        <time>2022-03-18T21:33:33Z</time>
      </trkpt>
      <trkpt lat="43.66901" lon="1.384">
        <ele>123</ele>
        <time>2022-03-18T21:33:39Z</time>
      </trkpt>
      <trkpt lat="43.66893" lon="1.38417">
        <ele>122</ele>
        <time>2022-03-18T21:33:42Z</time>
      </trkpt>
      <trkpt lat="43.6684" lon="1.38611">
        <ele>123</ele>
        <time>2022-03-18T21:34:17Z</time>
      </trkpt>
      <trkpt lat="43.66835" lon="1.38634">
        <ele>122</ele>
        <time>2022-03-18T21:34:21Z</time>
      </trkpt>
      <trkpt lat="43.66841" lon="1.38644">
        <ele>122</ele>
        <time>2022-03-18T21:34:24Z</time>
      </trkpt>
      <trkpt lat="43.66847" lon="1.38646">
        <ele>122</ele>
        <time>2022-03-18T21:34:25Z</time>
      </trkpt>
      <trkpt lat="43.66863" lon="1.38638">
        <ele>123</ele>
        <time>2022-03-18T21:34:29Z</time>
      </trkpt>
      <trkpt lat="43.66891" lon="1.38641">
        <ele>123</ele>
        <time>2022-03-18T21:34:36Z</time>
      </trkpt>
      <trkpt lat="43.66921" lon="1.38639">
        <ele>123</ele>
        <time>2022-03-18T21:34:43Z</time>
      </trkpt>
      <trkpt lat="43.66944" lon="1.38631">
        <ele>122</ele>
        <time>2022-03-18T21:34:48Z</time>
      </trkpt>
      <trkpt lat="43.66966" lon="1.38614">
        <ele>122</ele>
        <time>2022-03-18T21:34:54Z</time>
      </trkpt>
      <trkpt lat="43.67028" lon="1.38549">
        <ele>123</ele>
        <time>2022-03-18T21:35:12Z</time>
      </trkpt>
      <trkpt lat="43.67049" lon="1.38535">
        <ele>122</ele>
        <time>2022-03-18T21:35:18Z</time>
      </trkpt>
      <trkpt lat="43.67055" lon="1.38528">
        <ele>122</ele>
        <time>2022-03-18T21:35:20Z</time>
      </trkpt>
      <trkpt lat="43.67058" lon="1.38519">
        <ele>122</ele>
        <time>2022-03-18T21:35:21Z</time>
      </trkpt>
      <trkpt lat="43.67055" lon="1.38508">
        <ele>123</ele>
        <time>2022-03-18T21:35:23Z</time>
      </trkpt>
      <trkpt lat="43.67031" lon="1.38482">
        <ele>123</ele>
        <time>2022-03-18T21:35:30Z</time>
      </trkpt>
      <trkpt lat="43.67014" lon="1.38501">
        <ele>124</ele>
        <time>2022-03-18T21:35:35Z</time>
      </trkpt>
      <trkpt lat="43.67013" lon="1.38504">
        <ele>124</ele>
        <time>2022-03-18T21:35:36Z</time>
      </trkpt>
      <trkpt lat="43.6701" lon="1.38508">
        <ele>124</ele>
        <time>2022-03-18T21:35:37Z</time>
      </trkpt>
      <trkpt lat="43.67013" lon="1.38504">
        <ele>124</ele>
        <time>2022-03-18T21:35:38Z</time>
      </trkpt>
      <trkpt lat="43.67015" lon="1.38495">
        <ele>124</ele>
        <time>2022-03-18T21:35:40Z</time>
      </trkpt>
      <trkpt lat="43.67013" lon="1.38485">
        <ele>124</ele>
        <time>2022-03-18T21:35:41Z</time>
      </trkpt>
      <trkpt lat="43.67007" lon="1.38479">
        <ele>124</ele>
        <time>2022-03-18T21:35:43Z</time>
      </trkpt>
      <trkpt lat="43.66999" lon="1.38475">
        <ele>124</ele>
        <time>2022-03-18T21:35:45Z</time>
      </trkpt>
      <trkpt lat="43.66979" lon="1.38482">
        <ele>124</ele>
        <time>2022-03-18T21:35:50Z</time>
      </trkpt>
      <trkpt lat="43.66972" lon="1.3848">
        <ele>124</ele>
        <time>2022-03-18T21:35:51Z</time>
      </trkpt>
      <trkpt lat="43.66964" lon="1.3847">
        <ele>124</ele>
        <time>2022-03-18T21:35:54Z</time>
      </trkpt>
      <trkpt lat="43.66962" lon="1.38459">
        <ele>124</ele>
        <time>2022-03-18T21:35:56Z</time>
      </trkpt>
      <trkpt lat="43.66946" lon="1.38476">
        <ele>124</ele>
        <time>2022-03-18T21:36:01Z</time>
      </trkpt>
      <trkpt lat="43.66946" lon="1.38484">
        <ele>124</ele>
        <time>2022-03-18T21:36:02Z</time>
      </trkpt>
      <trkpt lat="43.66933" lon="1.38495">
        <ele>125</ele>
        <time>2022-03-18T21:36:06Z</time>
      </trkpt>
      <trkpt lat="43.66915" lon="1.38494">
        <ele>125</ele>
        <time>2022-03-18T21:36:10Z</time>
      </trkpt>
      <trkpt lat="43.66911" lon="1.38506">
        <ele>125</ele>
        <time>2022-03-18T21:36:12Z</time>
      </trkpt>
      <trkpt lat="43.66912" lon="1.38516">
        <ele>124</ele>
        <time>2022-03-18T21:36:14Z</time>
      </trkpt>
      <trkpt lat="43.66921" lon="1.3853">
        <ele>124</ele>
        <time>2022-03-18T21:36:17Z</time>
      </trkpt>
      <trkpt lat="43.66926" lon="1.3855">
        <ele>124</ele>
        <time>2022-03-18T21:36:20Z</time>
      </trkpt>
      <trkpt lat="43.66942" lon="1.38578">
        <ele>123</ele>
        <time>2022-03-18T21:36:26Z</time>
      </trkpt>
      <trkpt lat="43.66932" lon="1.38595">
        <ele>123</ele>
        <time>2022-03-18T21:36:30Z</time>
      </trkpt>
      <trkpt lat="43.66909" lon="1.38618">
        <ele>123</ele>
        <time>2022-03-18T21:36:37Z</time>
      </trkpt>
      <trkpt lat="43.66901" lon="1.38623">
        <ele>123</ele>
        <time>2022-03-18T21:36:39Z</time>
      </trkpt>
      <trkpt lat="43.66893" lon="1.38625">
        <ele>123</ele>
        <time>2022-03-18T21:36:41Z</time>
      </trkpt>
      <trkpt lat="43.66885" lon="1.38623">
        <ele>123</ele>
        <time>2022-03-18T21:36:43Z</time>
      </trkpt>
      <trkpt lat="43.66879" lon="1.38618">
        <ele>123</ele>
        <time>2022-03-18T21:36:44Z</time>
      </trkpt>
      <trkpt lat="43.66876" lon="1.38608">
        <ele>123</ele>
        <time>2022-03-18T21:36:46Z</time>
      </trkpt>
      <trkpt lat="43.66878" lon="1.38596">
        <ele>123</ele>
        <time>2022-03-18T21:36:48Z</time>
      </trkpt>
      <trkpt lat="43.66897" lon="1.38544">
        <ele>123</ele>
        <time>2022-03-18T21:36:58Z</time>
      </trkpt>
      <trkpt lat="43.66896" lon="1.38536">
        <ele>123</ele>
        <time>2022-03-18T21:36:59Z</time>
      </trkpt>
      <trkpt lat="43.66891" lon="1.38527">
        <ele>123</ele>
        <time>2022-03-18T21:37:01Z</time>
      </trkpt>
      <trkpt lat="43.66884" lon="1.38524">
        <ele>123</ele>
        <time>2022-03-18T21:37:03Z</time>
      </trkpt>
      <trkpt lat="43.66881" lon="1.38527">
        <ele>123</ele>
        <time>2022-03-18T21:37:04Z</time>
      </trkpt>
      <trkpt lat="43.66875" lon="1.38538">
        <ele>123</ele>
        <time>2022-03-18T21:37:06Z</time>
      </trkpt>
      <trkpt lat="43.66867" lon="1.38571">
        <ele>123</ele>
        <time>2022-03-18T21:37:12Z</time>
      </trkpt>
      <trkpt lat="43.66859" lon="1.38631">
        <ele>123</ele>
        <time>2022-03-18T21:37:22Z</time>
      </trkpt>
      <trkpt lat="43.66863" lon="1.38638">
        <ele>123</ele>
        <time>2022-03-18T21:37:24Z</time>
      </trkpt>
      <trkpt lat="43.66847" lon="1.38646">
        <ele>122</ele>
        <time>2022-03-18T21:37:28Z</time>
      </trkpt>
      <trkpt lat="43.66841" lon="1.38644">
        <ele>122</ele>
        <time>2022-03-18T21:37:29Z</time>
      </trkpt>
      <trkpt lat="43.66835" lon="1.38634">
        <ele>122</ele>
        <time>2022-03-18T21:37:32Z</time>
      </trkpt>
      <trkpt lat="43.66825" lon="1.38701">
        <ele>122</ele>
        <time>2022-03-18T21:37:43Z</time>
      </trkpt>
      <trkpt lat="43.66816" lon="1.38864">
        <ele>124</ele>
        <time>2022-03-18T21:38:11Z</time>
      </trkpt>
      <trkpt lat="43.6681" lon="1.39092">
        <ele>124</ele>
        <time>2022-03-18T21:38:49Z</time>
      </trkpt>
      <trkpt lat="43.6679" lon="1.39561">
        <ele>122</ele>
        <time>2022-03-18T21:40:09Z</time>
      </trkpt>
      <trkpt lat="43.66767" lon="1.39941">
        <ele>124</ele>
        <time>2022-03-18T21:41:13Z</time>
      </trkpt>
      <trkpt lat="43.66759" lon="1.39954">
        <ele>125</ele>
        <time>2022-03-18T21:41:16Z</time>
      </trkpt>
      <trkpt lat="43.6673" lon="1.40051">
        <ele>124</ele>
        <time>2022-03-18T21:41:34Z</time>
      </trkpt>
      <trkpt lat="43.66705" lon="1.40103">
        <ele>123</ele>
        <time>2022-03-18T21:41:44Z</time>
      </trkpt>
      <trkpt lat="43.66645" lon="1.40215">
        <ele>125</ele>
        <time>2022-03-18T21:42:08Z</time>
      </trkpt>
      <trkpt lat="43.66584" lon="1.40304">
        <ele>125</ele>
        <time>2022-03-18T21:42:28Z</time>
      </trkpt>
      <trkpt lat="43.66577" lon="1.40311">
        <ele>125</ele>
        <time>2022-03-18T21:42:30Z</time>
      </trkpt>
      <trkpt lat="43.6656" lon="1.40325">
        <ele>125</ele>
        <time>2022-03-18T21:42:35Z</time>
      </trkpt>
      <trkpt lat="43.66492" lon="1.40402">
        <ele>125</ele>
        <time>2022-03-18T21:42:56Z</time>
      </trkpt>
      <trkpt lat="43.66434" lon="1.40452">
        <ele>122</ele>
        <time>2022-03-18T21:43:12Z</time>
      </trkpt>
      <trkpt lat="43.66308" lon="1.40579">
        <ele>126</ele>
        <time>2022-03-18T21:43:48Z</time>
      </trkpt>
      <trkpt lat="43.66237" lon="1.40636">
        <ele>126</ele>
        <time>2022-03-18T21:44:07Z</time>
      </trkpt>
      <trkpt lat="43.66162" lon="1.40667">
        <ele>126</ele>
        <time>2022-03-18T21:44:25Z</time>
      </trkpt>
      <trkpt lat="43.66157" lon="1.40667">
        <ele>126</ele>
        <time>2022-03-18T21:44:27Z</time>
      </trkpt>
      <trkpt lat="43.6612" lon="1.4068">
        <ele>124</ele>
        <time>2022-03-18T21:44:36Z</time>
      </trkpt>
      <trkpt lat="43.66098" lon="1.4069">
        <ele>124</ele>
        <time>2022-03-18T21:44:41Z</time>
      </trkpt>
      <trkpt lat="43.66023" lon="1.40713">
        <ele>123</ele>
        <time>2022-03-18T21:44:59Z</time>
      </trkpt>
      <trkpt lat="43.65944" lon="1.40729">
        <ele>124</ele>
        <time>2022-03-18T21:45:17Z</time>
      </trkpt>
      <trkpt lat="43.65834" lon="1.40742">
        <ele>125</ele>
        <time>2022-03-18T21:45:43Z</time>
      </trkpt>
      <trkpt lat="43.65795" lon="1.40745">
        <ele>126</ele>
        <time>2022-03-18T21:45:52Z</time>
      </trkpt>
      <trkpt lat="43.65754" lon="1.40741">
        <ele>125</ele>
        <time>2022-03-18T21:46:02Z</time>
      </trkpt>
      <trkpt lat="43.65725" lon="1.40744">
        <ele>125</ele>
        <time>2022-03-18T21:46:09Z</time>
      </trkpt>
      <trkpt lat="43.65682" lon="1.40753">
        <ele>125</ele>
        <time>2022-03-18T21:46:19Z</time>
      </trkpt>
      <trkpt lat="43.65594" lon="1.40756">
        <ele>124</ele>
        <time>2022-03-18T21:46:40Z</time>
      </trkpt>
      <trkpt lat="43.65577" lon="1.4076">
        <ele>125</ele>
        <time>2022-03-18T21:46:44Z</time>
      </trkpt>
      <trkpt lat="43.65544" lon="1.40771">
        <ele>125</ele>
        <time>2022-03-18T21:46:51Z</time>
      </trkpt>
      <trkpt lat="43.65525" lon="1.40773">
        <ele>125</ele>
        <time>2022-03-18T21:46:56Z</time>
      </trkpt>
      <trkpt lat="43.65507" lon="1.40767">
        <ele>125</ele>
        <time>2022-03-18T21:47:00Z</time>
      </trkpt>
      <trkpt lat="43.65493" lon="1.40757">
        <ele>124</ele>
        <time>2022-03-18T21:47:04Z</time>
      </trkpt>
      <trkpt lat="43.65491" lon="1.40757">
        <ele>124</ele>
        <time>2022-03-18T21:47:04Z</time>
      </trkpt>
      <trkpt lat="43.65448" lon="1.40802">
        <ele>126</ele>
        <time>2022-03-18T21:47:17Z</time>
      </trkpt>
      <trkpt lat="43.6535" lon="1.40835">
        <ele>126</ele>
        <time>2022-03-18T21:47:41Z</time>
      </trkpt>
      <trkpt lat="43.65294" lon="1.40852">
        <ele>128</ele>
        <time>2022-03-18T21:47:54Z</time>
      </trkpt>
      <trkpt lat="43.65308" lon="1.40937">
        <ele>128</ele>
        <time>2022-03-18T21:48:09Z</time>
      </trkpt>
      <trkpt lat="43.65315" lon="1.40958">
        <ele>128</ele>
        <time>2022-03-18T21:48:13Z</time>
      </trkpt>
      <trkpt lat="43.65328" lon="1.40986">
        <ele>129</ele>
        <time>2022-03-18T21:48:18Z</time>
      </trkpt>
      <trkpt lat="43.65332" lon="1.40999">
        <ele>129</ele>
        <time>2022-03-18T21:48:21Z</time>
      </trkpt>
      <trkpt lat="43.65338" lon="1.41033">
        <ele>130</ele>
        <time>2022-03-18T21:48:26Z</time>
      </trkpt>
      <trkpt lat="43.65339" lon="1.41073">
        <ele>130</ele>
        <time>2022-03-18T21:48:33Z</time>
      </trkpt>
      <trkpt lat="43.65334" lon="1.41186">
        <ele>129</ele>
        <time>2022-03-18T21:48:52Z</time>
      </trkpt>
      <trkpt lat="43.6533" lon="1.41194">
        <ele>129</ele>
        <time>2022-03-18T21:48:54Z</time>
      </trkpt>
      <trkpt lat="43.65315" lon="1.41203">
        <ele>128</ele>
        <time>2022-03-18T21:48:58Z</time>
      </trkpt>
      <trkpt lat="43.65316" lon="1.41222">
        <ele>128</ele>
        <time>2022-03-18T21:49:01Z</time>
      </trkpt>
      <trkpt lat="43.65358" lon="1.41202">
        <ele>129</ele>
        <time>2022-03-18T21:49:11Z</time>
      </trkpt>
      <trkpt lat="43.65392" lon="1.41326">
        <ele>132</ele>
        <time>2022-03-18T21:49:34Z</time>
      </trkpt>
      <trkpt lat="43.65428" lon="1.41482">
        <ele>130</ele>
        <time>2022-03-18T21:50:01Z</time>
      </trkpt>
      <trkpt lat="43.65446" lon="1.41586">
        <ele>127</ele>
        <time>2022-03-18T21:50:20Z</time>
      </trkpt>
      <trkpt lat="43.65465" lon="1.41678">
        <ele>127</ele>
        <time>2022-03-18T21:50:36Z</time>
      </trkpt>
      <trkpt lat="43.65471" lon="1.41712">
        <ele>128</ele>
        <time>2022-03-18T21:50:42Z</time>
      </trkpt>
      <trkpt lat="43.65471" lon="1.41773">
        <ele>130</ele>
        <time>2022-03-18T21:50:52Z</time>
      </trkpt>
      <trkpt lat="43.65451" lon="1.4192">
        <ele>128</ele>
        <time>2022-03-18T21:51:17Z</time>
      </trkpt>
      <trkpt lat="43.65447" lon="1.41926">
        <ele>129</ele>
        <time>2022-03-18T21:51:19Z</time>
      </trkpt>
      <trkpt lat="43.6543" lon="1.41931">
        <ele>128</ele>
        <time>2022-03-18T21:51:23Z</time>
      </trkpt>
      <trkpt lat="43.65428" lon="1.41937">
        <ele>128</ele>
        <time>2022-03-18T21:51:24Z</time>
      </trkpt>
      <trkpt lat="43.65443" lon="1.41948">
        <ele>129</ele>
        <time>2022-03-18T21:51:28Z</time>
      </trkpt>
      <trkpt lat="43.65479" lon="1.41943">
        <ele>129</ele>
        <time>2022-03-18T21:51:36Z</time>
      </trkpt>
      <trkpt lat="43.65508" lon="1.41949">
        <ele>130</ele>
        <time>2022-03-18T21:51:43Z</time>
      </trkpt>
      <trkpt lat="43.65558" lon="1.41951">
        <ele>129</ele>
        <time>2022-03-18T21:51:55Z</time>
      </trkpt>
      <trkpt lat="43.6557" lon="1.41955">
        <ele>129</ele>
        <time>2022-03-18T21:51:58Z</time>
      </trkpt>
      <trkpt lat="43.65601" lon="1.41957">
        <ele>129</ele>
        <time>2022-03-18T21:52:05Z</time>
      </trkpt>
      <trkpt lat="43.65627" lon="1.41954">
        <ele>129</ele>
        <time>2022-03-18T21:52:11Z</time>
      </trkpt>
      <trkpt lat="43.65632" lon="1.41951">
        <ele>129</ele>
        <time>2022-03-18T21:52:12Z</time>
      </trkpt>
      <trkpt lat="43.65636" lon="1.41961">
        <ele>129</ele>
        <time>2022-03-18T21:52:14Z</time>
      </trkpt>
      <trkpt lat="43.65612" lon="1.41977">
        <ele>129</ele>
        <time>2022-03-18T21:52:20Z</time>
      </trkpt>
      <trkpt lat="43.6536" lon="1.4219">
        <ele>132</ele>
        <time>2022-03-18T21:53:29Z</time>
      </trkpt>
      <trkpt lat="43.65276" lon="1.42265">
        <ele>133</ele>
        <time>2022-03-18T21:53:53Z</time>
      </trkpt>
      <trkpt lat="43.65268" lon="1.42268">
        <ele>133</ele>
        <time>2022-03-18T21:53:55Z</time>
      </trkpt>
      <trkpt lat="43.65276" lon="1.4228">
        <ele>133</ele>
        <time>2022-03-18T21:53:57Z</time>
      </trkpt>
      <trkpt lat="43.65224" lon="1.42315">
        <ele>135</ele>
        <time>2022-03-18T21:54:11Z</time>
      </trkpt>
      <trkpt lat="43.6519" lon="1.42329">
        <ele>136</ele>
        <time>2022-03-18T21:54:19Z</time>
      </trkpt>
      <trkpt lat="43.65143" lon="1.42344">
        <ele>135</ele>
        <time>2022-03-18T21:54:30Z</time>
      </trkpt>
      <trkpt lat="43.65058" lon="1.42346">
        <ele>132</ele>
        <time>2022-03-18T21:54:50Z</time>
      </trkpt>
      <trkpt lat="43.64974" lon="1.42333">
        <ele>133</ele>
        <time>2022-03-18T21:55:10Z</time>
      </trkpt>
      <trkpt lat="43.64725" lon="1.42296">
        <ele>133</ele>
        <time>2022-03-18T21:56:09Z</time>
      </trkpt>
      <trkpt lat="43.64717" lon="1.42295">
        <ele>133</ele>
        <time>2022-03-18T21:56:10Z</time>
      </trkpt>
      <trkpt lat="43.64675" lon="1.42286">
        <ele>132</ele>
        <time>2022-03-18T21:56:20Z</time>
      </trkpt>
      <trkpt lat="43.64672" lon="1.42325">
        <ele>133</ele>
        <time>2022-03-18T21:56:27Z</time>
      </trkpt>
      <trkpt lat="43.64664" lon="1.4242">
        <ele>134</ele>
        <time>2022-03-18T21:56:43Z</time>
      </trkpt>
      <trkpt lat="43.64663" lon="1.42444">
        <ele>134</ele>
        <time>2022-03-18T21:56:47Z</time>
      </trkpt>
      <trkpt lat="43.64664" lon="1.42461">
        <ele>134</ele>
        <time>2022-03-18T21:56:50Z</time>
      </trkpt>
      <trkpt lat="43.64657" lon="1.42536">
        <ele>133</ele>
        <time>2022-03-18T21:57:03Z</time>
      </trkpt>
      <trkpt lat="43.64659" lon="1.42542">
        <ele>133</ele>
        <time>2022-03-18T21:57:04Z</time>
      </trkpt>
      <trkpt lat="43.64657" lon="1.42598">
        <ele>133</ele>
        <time>2022-03-18T21:57:13Z</time>
      </trkpt>
      <trkpt lat="43.64654" lon="1.426">
        <ele>133</ele>
        <time>2022-03-18T21:57:14Z</time>
      </trkpt>
      <trkpt lat="43.64647" lon="1.42698">
        <ele>135</ele>
        <time>2022-03-18T21:57:31Z</time>
      </trkpt>
      <trkpt lat="43.64601" lon="1.42714">
        <ele>135</ele>
        <time>2022-03-18T21:57:42Z</time>
      </trkpt>
      <trkpt lat="43.64609" lon="1.42815">
        <ele>137</ele>
        <time>2022-03-18T21:57:59Z</time>
      </trkpt>
      <trkpt lat="43.64612" lon="1.42855">
        <ele>137</ele>
        <time>2022-03-18T21:58:06Z</time>
      </trkpt>
      <trkpt lat="43.64617" lon="1.42911">
        <ele>136</ele>
        <time>2022-03-18T21:58:15Z</time>
      </trkpt>
      <trkpt lat="43.64619" lon="1.42914">
        <ele>136</ele>
        <time>2022-03-18T21:58:16Z</time>
      </trkpt>
      <trkpt lat="43.64621" lon="1.4295">
        <ele>135</ele>
        <time>2022-03-18T21:58:22Z</time>
      </trkpt>
      <trkpt lat="43.64655" lon="1.42947">
        <ele>135</ele>
        <time>2022-03-18T21:58:30Z</time>
      </trkpt>
      <trkpt lat="43.64683" lon="1.43313">
        <ele>137</ele>
        <time>2022-03-18T21:59:32Z</time>
      </trkpt>
      <trkpt lat="43.64696" lon="1.4356">
        <ele>136</ele>
        <time>2022-03-18T22:00:14Z</time>
      </trkpt>
      <trkpt lat="43.64713" lon="1.43793">
        <ele>136</ele>
        <time>2022-03-18T22:00:54Z</time>
      </trkpt>
      <trkpt lat="43.64716" lon="1.43804">
        <ele>136</ele>
        <time>2022-03-18T22:00:56Z</time>
      </trkpt>
      <trkpt lat="43.64723" lon="1.4382">
        <ele>135</ele>
        <time>2022-03-18T22:00:59Z</time>
      </trkpt>
      <trkpt lat="43.64726" lon="1.43828">
        <ele>135</ele>
        <time>2022-03-18T22:01:00Z</time>
      </trkpt>
      <trkpt lat="43.64721" lon="1.43839">
        <ele>135</ele>
        <time>2022-03-18T22:01:03Z</time>
      </trkpt>
      <trkpt lat="43.64708" lon="1.43886">
        <ele>135</ele>
        <time>2022-03-18T22:01:11Z</time>
      </trkpt>
      <trkpt lat="43.647" lon="1.43898">
        <ele>135</ele>
        <time>2022-03-18T22:01:14Z</time>
      </trkpt>
      <trkpt lat="43.64702" lon="1.43928">
        <ele>135</ele>
        <time>2022-03-18T22:01:19Z</time>
      </trkpt>
      <trkpt lat="43.64695" lon="1.43932">
        <ele>135</ele>
        <time>2022-03-18T22:01:21Z</time>
      </trkpt>
      <trkpt lat="43.6469" lon="1.43938">
        <ele>136</ele>
        <time>2022-03-18T22:01:22Z</time>
      </trkpt>
      <trkpt lat="43.64681" lon="1.43957">
        <ele>136</ele>
        <time>2022-03-18T22:01:26Z</time>
      </trkpt>
      <trkpt lat="43.64679" lon="1.43964">
        <ele>136</ele>
        <time>2022-03-18T22:01:27Z</time>
      </trkpt>
      <trkpt lat="43.64649" lon="1.44198">
        <ele>134</ele>
        <time>2022-03-18T22:02:08Z</time>
      </trkpt>
      <trkpt lat="43.64647" lon="1.44206">
        <ele>134</ele>
        <time>2022-03-18T22:02:09Z</time>
      </trkpt>
      <trkpt lat="43.64644" lon="1.44211">
        <ele>134</ele>
        <time>2022-03-18T22:02:10Z</time>
      </trkpt>
      <trkpt lat="43.64635" lon="1.4422">
        <ele>134</ele>
        <time>2022-03-18T22:02:13Z</time>
      </trkpt>
      <trkpt lat="43.64628" lon="1.44231">
        <ele>134</ele>
        <time>2022-03-18T22:02:15Z</time>
      </trkpt>
      <trkpt lat="43.6461" lon="1.44383">
        <ele>135</ele>
        <time>2022-03-18T22:02:41Z</time>
      </trkpt>
      <trkpt lat="43.6466" lon="1.44372">
        <ele>134</ele>
        <time>2022-03-18T22:02:53Z</time>
      </trkpt>
      <trkpt lat="43.6472" lon="1.44353">
        <ele>135</ele>
        <time>2022-03-18T22:03:07Z</time>
      </trkpt>
      <trkpt lat="43.64783" lon="1.44318">
        <ele>136</ele>
        <time>2022-03-18T22:03:23Z</time>
      </trkpt>
      <trkpt lat="43.64794" lon="1.44329">
        <ele>136</ele>
        <time>2022-03-18T22:03:26Z</time>
      </trkpt>
      <trkpt lat="43.64894" lon="1.44363">
        <ele>136</ele>
        <time>2022-03-18T22:03:50Z</time>
      </trkpt>
      <trkpt lat="43.64949" lon="1.44392">
        <ele>136</ele>
        <time>2022-03-18T22:04:04Z</time>
      </trkpt>
      <trkpt lat="43.65018" lon="1.44431">
        <ele>135</ele>
        <time>2022-03-18T22:04:22Z</time>
      </trkpt>
      <trkpt lat="43.65122" lon="1.44471">
        <ele>135</ele>
        <time>2022-03-18T22:04:47Z</time>
      </trkpt>
      <trkpt lat="43.65193" lon="1.44497">
        <ele>136</ele>
        <time>2022-03-18T22:05:04Z</time>
      </trkpt>
      <trkpt lat="43.65251" lon="1.44515">
        <ele>136</ele>
        <time>2022-03-18T22:05:18Z</time>
      </trkpt>
      <trkpt lat="43.65288" lon="1.44524">
        <ele>136</ele>
        <time>2022-03-18T22:05:27Z</time>
      </trkpt>
      <trkpt lat="43.65438" lon="1.4455">
        <ele>135</ele>
        <time>2022-03-18T22:06:02Z</time>
      </trkpt>
      <trkpt lat="43.65454" lon="1.44556">
        <ele>135</ele>
        <time>2022-03-18T22:06:06Z</time>
      </trkpt>
      <trkpt lat="43.65526" lon="1.44592">
        <ele>135</ele>
        <time>2022-03-18T22:06:24Z</time>
      </trkpt>
    </trkseg>
  </trk>
</gpx>